Home > Products > Valid Products > TAF

000
FTUS45 KSLC 020623 AAA
TAFENV
TAF AMD
KENV 020623Z 0206/0306 22017KT P6SM SKC
     FM021600 17010KT P6SM FEW090 SCT200
     FM030200 22015G25KT P6SM FEW090 SCT200
      AMD LTD TO CLD VIS AND WIND=



000
FTUS45 KSLC 020623 AAA
TAFENV
TAF AMD
KENV 020623Z 0206/0306 22017KT P6SM SKC
     FM021600 17010KT P6SM FEW090 SCT200
     FM030200 22015G25KT P6SM FEW090 SCT200
      AMD LTD TO CLD VIS AND WIND=



000
FTUS45 KSLC 020552 AAA
TAFSLC
TAF AMD
KSLC 020552Z 0206/0312 16017G24KT P6SM FEW090 SCT150
     FM021500 17019G27KT P6SM FEW090 SCT200
     FM030300 16012G19KT P6SM BKN200=



000
FTUS45 KSLC 020552 AAA
TAFSLC
TAF AMD
KSLC 020552Z 0206/0312 16017G24KT P6SM FEW090 SCT150
     FM021500 17019G27KT P6SM FEW090 SCT200
     FM030300 16012G19KT P6SM BKN200=



000
FTUS45 KSLC 020552 AAA
TAFSLC
TAF AMD
KSLC 020552Z 0206/0312 16017G24KT P6SM FEW090 SCT150
     FM021500 17019G27KT P6SM FEW090 SCT200
     FM030300 16012G19KT P6SM BKN200=



000
FTUS45 KSLC 020552 AAA
TAFSLC
TAF AMD
KSLC 020552Z 0206/0312 16017G24KT P6SM FEW090 SCT150
     FM021500 17019G27KT P6SM FEW090 SCT200
     FM030300 16012G19KT P6SM BKN200=



000
FTUS45 KSLC 020530
TAFOGD
TAF
KOGD 020530Z 0206/0306 17011KT P6SM FEW090 SCT150
     FM021800 19015G25KT P6SM FEW090 SCT200=



000
FTUS45 KSLC 020530
TAFSGU
TAF
KSGU 020530Z 0206/0306 12008KT P6SM SCT200
     FM022000 23010G17KT P6SM FEW100 SCT200
     FM030300 17010KT P6SM SCT200
      AMD LTD TO CLD VIS AND WIND=



000
FTUS45 KSLC 020530
TAFBCE
TAF
KBCE 020530Z 0206/0306 25007KT P6SM FEW080 SCT150
     FM021700 19012G19KT P6SM SCT080 BKN150
     FM030300 27007KT P6SM BKN150=



000
FTUS45 KSLC 020530
TAFENV
TAF
KENV 020530Z 0206/0306 28009KT P6SM SKC
     FM021600 17010KT P6SM FEW090 SCT200
     FM030200 22015G25KT P6SM FEW090 SCT200
      AMD LTD TO CLD VIS AND WIND=



000
FTUS45 KSLC 020530
TAFLGU
TAF
KLGU 020530Z 0206/0306 VRB05KT P6SM FEW090 SCT150
     FM021800 20010G16KT P6SM FEW090 SCT200
     FM030200 16008KT P6SM SCT200=



000
FTUS45 KSLC 020530
TAFSLC
TAF
KSLC 020530Z 0206/0312 16014KT P6SM FEW090 SCT150
     FM021500 17019G27KT P6SM FEW090 SCT200
     FM030300 16012G19KT P6SM BKN200=



000
FTUS45 KSLC 020530
TAFSGU
TAF
KSGU 020530Z 0206/0306 12008KT P6SM SCT200
     FM022000 23010G17KT P6SM FEW100 SCT200
     FM030300 17010KT P6SM SCT200
      AMD LTD TO CLD VIS AND WIND=



000
FTUS45 KSLC 020530
TAFCDC
TAF
KCDC 020530Z 0206/0306 22008KT P6SM SCT150
     FM021600 21014G21KT P6SM FEW090 SCT200
     FM030300 19010KT P6SM SCT200=



000
FTUS45 KSLC 020530
TAFPVU
TAF
KPVU 020530Z 0206/0306 18010KT P6SM FEW090 SCT150
      AMD LTD TO CLD VIS AND WIND=



000
FTUS45 KSLC 020530
TAFENV
TAF
KENV 020530Z 0206/0306 28009KT P6SM SKC
     FM021600 17010KT P6SM FEW090 SCT200
     FM030200 22015G25KT P6SM FEW090 SCT200
      AMD LTD TO CLD VIS AND WIND=



000
FTUS45 KSLC 020530
TAFSLC
TAF
KSLC 020530Z 0206/0312 16014KT P6SM FEW090 SCT150
     FM021500 17019G27KT P6SM FEW090 SCT200
     FM030300 16012G19KT P6SM BKN200=



000
FTUS45 KSLC 020530
TAFBCE
TAF
KBCE 020530Z 0206/0306 25007KT P6SM FEW080 SCT150
     FM021700 19012G19KT P6SM SCT080 BKN150
     FM030300 27007KT P6SM BKN150=



000
FTUS45 KSLC 020530
TAFPVU
TAF
KPVU 020530Z 0206/0306 18010KT P6SM FEW090 SCT150
      AMD LTD TO CLD VIS AND WIND=



000
FTUS45 KSLC 020530
TAFOGD
TAF
KOGD 020530Z 0206/0306 17011KT P6SM FEW090 SCT150
     FM021800 19015G25KT P6SM FEW090 SCT200=



000
FTUS45 KSLC 020530
TAFSGU
TAF
KSGU 020530Z 0206/0306 12008KT P6SM SCT200
     FM022000 23010G17KT P6SM FEW100 SCT200
     FM030300 17010KT P6SM SCT200
      AMD LTD TO CLD VIS AND WIND=



000
FTUS45 KSLC 020530
TAFLGU
TAF
KLGU 020530Z 0206/0306 VRB05KT P6SM FEW090 SCT150
     FM021800 20010G16KT P6SM FEW090 SCT200
     FM030200 16008KT P6SM SCT200=



000
FTUS45 KSLC 020530
TAFBCE
TAF
KBCE 020530Z 0206/0306 25007KT P6SM FEW080 SCT150
     FM021700 19012G19KT P6SM SCT080 BKN150
     FM030300 27007KT P6SM BKN150=



000
FTUS45 KSLC 020530
TAFCDC
TAF
KCDC 020530Z 0206/0306 22008KT P6SM SCT150
     FM021600 21014G21KT P6SM FEW090 SCT200
     FM030300 19010KT P6SM SCT200=



000
FTUS45 KSLC 020530
TAFOGD
TAF
KOGD 020530Z 0206/0306 17011KT P6SM FEW090 SCT150
     FM021800 19015G25KT P6SM FEW090 SCT200=



000
FTUS45 KSLC 020530
TAFLGU
TAF
KLGU 020530Z 0206/0306 VRB05KT P6SM FEW090 SCT150
     FM021800 20010G16KT P6SM FEW090 SCT200
     FM030200 16008KT P6SM SCT200=



000
FTUS45 KSLC 020530
TAFOGD
TAF
KOGD 020530Z 0206/0306 17011KT P6SM FEW090 SCT150
     FM021800 19015G25KT P6SM FEW090 SCT200=



000
FTUS45 KSLC 020530
TAFSLC
TAF
KSLC 020530Z 0206/0312 16014KT P6SM FEW090 SCT150
     FM021500 17019G27KT P6SM FEW090 SCT200
     FM030300 16012G19KT P6SM BKN200=



000
FTUS45 KSLC 020530
TAFPVU
TAF
KPVU 020530Z 0206/0306 18010KT P6SM FEW090 SCT150
      AMD LTD TO CLD VIS AND WIND=



000
FTUS45 KSLC 020530
TAFBCE
TAF
KBCE 020530Z 0206/0306 25007KT P6SM FEW080 SCT150
     FM021700 19012G19KT P6SM SCT080 BKN150
     FM030300 27007KT P6SM BKN150=



000
FTUS45 KSLC 020530
TAFSGU
TAF
KSGU 020530Z 0206/0306 12008KT P6SM SCT200
     FM022000 23010G17KT P6SM FEW100 SCT200
     FM030300 17010KT P6SM SCT200
      AMD LTD TO CLD VIS AND WIND=



000
FTUS45 KSLC 020530
TAFCDC
TAF
KCDC 020530Z 0206/0306 22008KT P6SM SCT150
     FM021600 21014G21KT P6SM FEW090 SCT200
     FM030300 19010KT P6SM SCT200=



000
FTUS45 KSLC 020530
TAFENV
TAF
KENV 020530Z 0206/0306 28009KT P6SM SKC
     FM021600 17010KT P6SM FEW090 SCT200
     FM030200 22015G25KT P6SM FEW090 SCT200
      AMD LTD TO CLD VIS AND WIND=



000
FTUS45 KSLC 020530
TAFENV
TAF
KENV 020530Z 0206/0306 28009KT P6SM SKC
     FM021600 17010KT P6SM FEW090 SCT200
     FM030200 22015G25KT P6SM FEW090 SCT200
      AMD LTD TO CLD VIS AND WIND=



000
FTUS45 KSLC 020530
TAFPVU
TAF
KPVU 020530Z 0206/0306 18010KT P6SM FEW090 SCT150
      AMD LTD TO CLD VIS AND WIND=



000
FTUS45 KSLC 020530
TAFSLC
TAF
KSLC 020530Z 0206/0312 16014KT P6SM FEW090 SCT150
     FM021500 17019G27KT P6SM FEW090 SCT200
     FM030300 16012G19KT P6SM BKN200=



000
FTUS45 KSLC 020530
TAFLGU
TAF
KLGU 020530Z 0206/0306 VRB05KT P6SM FEW090 SCT150
     FM021800 20010G16KT P6SM FEW090 SCT200
     FM030200 16008KT P6SM SCT200=



000
FTUS45 KSLC 020530
TAFCDC
TAF
KCDC 020530Z 0206/0306 22008KT P6SM SCT150
     FM021600 21014G21KT P6SM FEW090 SCT200
     FM030300 19010KT P6SM SCT200=



000
FTUS45 KSLC 020201 AAB
TAFSLC
TAF AMD
KSLC 020201Z 0202/0306 16014KT P6SM FEW090 SCT150
     FM021500 17019G27KT P6SM FEW090 SCT200
     FM030300 16012G19KT P6SM BKN200=



000
FTUS45 KSLC 020201 AAB
TAFSLC
TAF AMD
KSLC 020201Z 0202/0306 16014KT P6SM FEW090 SCT150
     FM021500 17019G27KT P6SM FEW090 SCT200
     FM030300 16012G19KT P6SM BKN200=



000
FTUS45 KSLC 020052 AAA
TAFSLC
TAF AMD
KSLC 020052Z 0201/0306 16012G19KT P6SM FEW090 SCT150
      TEMPO 0201/0202 18023G32KT -SHRA BKN090
     FM021500 17019G27KT P6SM FEW090 SCT200
     FM030300 16012G19KT P6SM BKN200=



000
FTUS45 KSLC 020052 AAA
TAFSLC
TAF AMD
KSLC 020052Z 0201/0306 16012G19KT P6SM FEW090 SCT150
      TEMPO 0201/0202 18023G32KT -SHRA BKN090
     FM021500 17019G27KT P6SM FEW090 SCT200
     FM030300 16012G19KT P6SM BKN200=



000
FTUS45 KSLC 012338
TAFENV
TAF
KENV 012338Z 0200/0224 10010KT P6SM FEW090
     FM020200 22011KT P6SM SKC
     FM020600 28009KT P6SM SKC
     FM021600 13010KT P6SM FEW090 SCT200
      AMD LTD TO CLD VIS AND WIND=



000
FTUS45 KSLC 012338
TAFLGU
TAF
KLGU 012338Z 0200/0224 VRB05KT P6SM FEW090 SCT150
     FM021800 20010G16KT P6SM FEW090 SCT200=



000
FTUS45 KSLC 012338
TAFSGU
TAF
KSGU 012338Z 0200/0224 24010G17KT P6SM FEW100 SCT200
     FM020300 12008KT P6SM SCT200
     FM022000 23010G17KT P6SM FEW100 SCT200
      AMD LTD TO CLD VIS AND WIND=



000
FTUS45 KSLC 012338
TAFOGD
TAF
KOGD 012338Z 0200/0224 17011KT P6SM FEW090 SCT150
     FM021800 19013G20KT P6SM FEW090 SCT200=



000
FTUS45 KSLC 012338
TAFSLC
TAF
KSLC 012338Z 0200/0306 16012G19KT P6SM FEW090 SCT150
     FM021500 17019G27KT P6SM FEW090 SCT200
     FM030300 16012G19KT P6SM BKN200=



000
FTUS45 KSLC 012338
TAFENV
TAF
KENV 012338Z 0200/0224 10010KT P6SM FEW090
     FM020200 22011KT P6SM SKC
     FM020600 28009KT P6SM SKC
     FM021600 13010KT P6SM FEW090 SCT200
      AMD LTD TO CLD VIS AND WIND=



000
FTUS45 KSLC 012338
TAFBCE
TAF
KBCE 012338Z 0200/0224 21010G17KT P6SM SCT080 SCT150
     FM020200 25007KT P6SM FEW080 SCT150
     FM021700 19012G19KT P6SM SCT080 BKN150=



000
FTUS45 KSLC 012338
TAFPVU
TAF
KPVU 012338Z 0200/0224 15009KT P6SM FEW090 SCT150
      AMD LTD TO CLD VIS AND WIND=



000
FTUS45 KSLC 012338
TAFSLC
TAF
KSLC 012338Z 0200/0306 16012G19KT P6SM FEW090 SCT150
     FM021500 17019G27KT P6SM FEW090 SCT200
     FM030300 16012G19KT P6SM BKN200=



000
FTUS45 KSLC 012338
TAFLGU
TAF
KLGU 012338Z 0200/0224 VRB05KT P6SM FEW090 SCT150
     FM021800 20010G16KT P6SM FEW090 SCT200=



000
FTUS45 KSLC 012338
TAFCDC
TAF
KCDC 012338Z 0200/0224 21013G20KT P6SM FEW090 SCT150
     FM020200 19008KT P6SM SCT150
     FM021600 21014G21KT P6SM FEW090 SCT200=



000
FTUS45 KSLC 012338
TAFCDC
TAF
KCDC 012338Z 0200/0224 21013G20KT P6SM FEW090 SCT150
     FM020200 19008KT P6SM SCT150
     FM021600 21014G21KT P6SM FEW090 SCT200=



000
FTUS45 KSLC 012338
TAFOGD
TAF
KOGD 012338Z 0200/0224 17011KT P6SM FEW090 SCT150
     FM021800 19013G20KT P6SM FEW090 SCT200=



000
FTUS45 KSLC 012338
TAFSGU
TAF
KSGU 012338Z 0200/0224 24010G17KT P6SM FEW100 SCT200
     FM020300 12008KT P6SM SCT200
     FM022000 23010G17KT P6SM FEW100 SCT200
      AMD LTD TO CLD VIS AND WIND=



000
FTUS45 KSLC 012338
TAFPVU
TAF
KPVU 012338Z 0200/0224 15009KT P6SM FEW090 SCT150
      AMD LTD TO CLD VIS AND WIND=



000
FTUS45 KSLC 012338
TAFBCE
TAF
KBCE 012338Z 0200/0224 21010G17KT P6SM SCT080 SCT150
     FM020200 25007KT P6SM FEW080 SCT150
     FM021700 19012G19KT P6SM SCT080 BKN150=



000
FTUS45 KSLC 012300 AAC
TAFOGD
TAF AMD
KOGD 012300Z 0123/0218 17011KT P6SM FEW090 SCT150=



000
FTUS45 KSLC 012300 AAC
TAFOGD
TAF AMD
KOGD 012300Z 0123/0218 17011KT P6SM FEW090 SCT150=



000
FTUS45 KSLC 012101 AAB
TAFOGD
TAF AMD
KOGD 012101Z 0121/0218 19013G20KT P6SM FEW090 SCT150
      TEMPO 0121/0122 VRB10KT -SHRA BKN090=



000
FTUS45 KSLC 012101 AAB
TAFOGD
TAF AMD
KOGD 012101Z 0121/0218 19013G20KT P6SM FEW090 SCT150
      TEMPO 0121/0122 VRB10KT -SHRA BKN090=



000
FTUS45 KSLC 012059 AAB
TAFSLC
TAF AMD
KSLC 012059Z 0121/0224 17017G24KT P6SM FEW090 SCT150=



000
FTUS45 KSLC 012059 AAB
TAFSLC
TAF AMD
KSLC 012059Z 0121/0224 17017G24KT P6SM FEW090 SCT150=



000
FTUS45 KSLC 012059 AAB
TAFSLC
TAF AMD
KSLC 012059Z 0121/0224 17017G24KT P6SM FEW090 SCT150=



000
FTUS45 KSLC 012012 AAA
TAFOGD
TAF AMD
KOGD 012012Z 0120/0218 19013G20KT P6SM FEW090 SCT150
      TEMPO 0120/0121 VRB10G20KT -TSRA BKN090CB=



000
FTUS45 KSLC 012012 AAA
TAFOGD
TAF AMD
KOGD 012012Z 0120/0218 19013G20KT P6SM FEW090 SCT150
      TEMPO 0120/0121 VRB10G20KT -TSRA BKN090CB=



000
FTUS45 KSLC 012012 AAA
TAFOGD
TAF AMD
KOGD 012012Z 0120/0218 19013G20KT P6SM FEW090 SCT150
      TEMPO 0120/0121 VRB10G20KT -TSRA BKN090CB=



000
FTUS45 KSLC 011734
TAFENV
TAF
KENV 011734Z 0118/0218 10007KT P6SM FEW090
     FM020200 22011KT P6SM SKC
      AMD LTD TO CLD VIS AND WIND=



000
FTUS45 KSLC 011734
TAFPVU
TAF
KPVU 011734Z 0118/0218 15009KT P6SM FEW090 SCT150
      AMD LTD TO CLD VIS AND WIND=



000
FTUS45 KSLC 011734
TAFPVU
TAF
KPVU 011734Z 0118/0218 15009KT P6SM FEW090 SCT150
      AMD LTD TO CLD VIS AND WIND=



000
FTUS45 KSLC 011734
TAFOGD
TAF
KOGD 011734Z 0118/0218 19013G20KT P6SM FEW090 SCT150=



000
FTUS45 KSLC 011734
TAFLGU
TAF
KLGU 011734Z 0118/0218 20008KT P6SM FEW090 SCT150=



000
FTUS45 KSLC 011734
TAFSLC
TAF
KSLC 011734Z 0118/0224 17017G24KT P6SM FEW090 SCT150=



000
FTUS45 KSLC 011734
TAFBCE
TAF
KBCE 011734Z 0118/0218 19010G17KT P6SM VCSH FEW040 SCT080
     FM020300 25007KT P6SM FEW080 SCT150=



000
FTUS45 KSLC 011734
TAFCDC
TAF
KCDC 011734Z 0118/0218 20015G22KT P6SM FEW090 SCT150
     FM020300 19007KT P6SM SCT150
     FM021600 21013G20KT P6SM FEW090 SCT200=



000
FTUS45 KSLC 011734
TAFSGU
TAF
KSGU 011734Z 0118/0218 VRB05KT P6SM SKC
     FM012000 24012G20KT P6SM FEW100 SCT200
     FM020300 13009KT P6SM SCT200
      AMD LTD TO CLD VIS AND WIND=



000
FTUS45 KSLC 011734
TAFLGU
TAF
KLGU 011734Z 0118/0218 20008KT P6SM FEW090 SCT150=



000
FTUS45 KSLC 011734
TAFOGD
TAF
KOGD 011734Z 0118/0218 19013G20KT P6SM FEW090 SCT150=



000
FTUS45 KSLC 011734
TAFSGU
TAF
KSGU 011734Z 0118/0218 VRB05KT P6SM SKC
     FM012000 24012G20KT P6SM FEW100 SCT200
     FM020300 13009KT P6SM SCT200
      AMD LTD TO CLD VIS AND WIND=



000
FTUS45 KSLC 011734
TAFENV
TAF
KENV 011734Z 0118/0218 10007KT P6SM FEW090
     FM020200 22011KT P6SM SKC
      AMD LTD TO CLD VIS AND WIND=



000
FTUS45 KSLC 011734
TAFENV
TAF
KENV 011734Z 0118/0218 10007KT P6SM FEW090
     FM020200 22011KT P6SM SKC
      AMD LTD TO CLD VIS AND WIND=



000
FTUS45 KSLC 011734
TAFOGD
TAF
KOGD 011734Z 0118/0218 19013G20KT P6SM FEW090 SCT150=



000
FTUS45 KSLC 011734
TAFCDC
TAF
KCDC 011734Z 0118/0218 20015G22KT P6SM FEW090 SCT150
     FM020300 19007KT P6SM SCT150
     FM021600 21013G20KT P6SM FEW090 SCT200=



000
FTUS45 KSLC 011734
TAFBCE
TAF
KBCE 011734Z 0118/0218 19010G17KT P6SM VCSH FEW040 SCT080
     FM020300 25007KT P6SM FEW080 SCT150=



000
FTUS45 KSLC 011734
TAFENV
TAF
KENV 011734Z 0118/0218 10007KT P6SM FEW090
     FM020200 22011KT P6SM SKC
      AMD LTD TO CLD VIS AND WIND=



000
FTUS45 KSLC 011734
TAFBCE
TAF
KBCE 011734Z 0118/0218 19010G17KT P6SM VCSH FEW040 SCT080
     FM020300 25007KT P6SM FEW080 SCT150=



000
FTUS45 KSLC 011734
TAFPVU
TAF
KPVU 011734Z 0118/0218 15009KT P6SM FEW090 SCT150
      AMD LTD TO CLD VIS AND WIND=



000
FTUS45 KSLC 011734
TAFLGU
TAF
KLGU 011734Z 0118/0218 20008KT P6SM FEW090 SCT150=



000
FTUS45 KSLC 011734
TAFSLC
TAF
KSLC 011734Z 0118/0224 17017G24KT P6SM FEW090 SCT150=



000
FTUS45 KSLC 011734
TAFPVU
TAF
KPVU 011734Z 0118/0218 15009KT P6SM FEW090 SCT150
      AMD LTD TO CLD VIS AND WIND=



000
FTUS45 KSLC 011734
TAFCDC
TAF
KCDC 011734Z 0118/0218 20015G22KT P6SM FEW090 SCT150
     FM020300 19007KT P6SM SCT150
     FM021600 21013G20KT P6SM FEW090 SCT200=



000
FTUS45 KSLC 011734
TAFSLC
TAF
KSLC 011734Z 0118/0224 17017G24KT P6SM FEW090 SCT150=



000
FTUS45 KSLC 011734
TAFSGU
TAF
KSGU 011734Z 0118/0218 VRB05KT P6SM SKC
     FM012000 24012G20KT P6SM FEW100 SCT200
     FM020300 13009KT P6SM SCT200
      AMD LTD TO CLD VIS AND WIND=



000
FTUS45 KSLC 011734
TAFSGU
TAF
KSGU 011734Z 0118/0218 VRB05KT P6SM SKC
     FM012000 24012G20KT P6SM FEW100 SCT200
     FM020300 13009KT P6SM SCT200
      AMD LTD TO CLD VIS AND WIND=



000
FTUS45 KSLC 011734
TAFOGD
TAF
KOGD 011734Z 0118/0218 19013G20KT P6SM FEW090 SCT150=



000
FTUS45 KSLC 011734
TAFLGU
TAF
KLGU 011734Z 0118/0218 20008KT P6SM FEW090 SCT150=



000
FTUS45 KSLC 011734
TAFCDC
TAF
KCDC 011734Z 0118/0218 20015G22KT P6SM FEW090 SCT150
     FM020300 19007KT P6SM SCT150
     FM021600 21013G20KT P6SM FEW090 SCT200=



000
FTUS45 KSLC 011734
TAFSLC
TAF
KSLC 011734Z 0118/0224 17017G24KT P6SM FEW090 SCT150=



000
FTUS45 KSLC 011734
TAFBCE
TAF
KBCE 011734Z 0118/0218 19010G17KT P6SM VCSH FEW040 SCT080
     FM020300 25007KT P6SM FEW080 SCT150=



000
FTUS45 KSLC 011623 AAA
TAFPVU
TAF AMD
KPVU 011623Z 0116/0212 15009KT P6SM FEW090 SCT150
      AMD LTD TO CLD VIS AND WIND=



000
FTUS45 KSLC 011623 AAA
TAFPVU
TAF AMD
KPVU 011623Z 0116/0212 15009KT P6SM FEW090 SCT150
      AMD LTD TO CLD VIS AND WIND=



000
FTUS45 KSLC 011623 AAA
TAFPVU
TAF AMD
KPVU 011623Z 0116/0212 15009KT P6SM FEW090 SCT150
      AMD LTD TO CLD VIS AND WIND=



000
FTUS45 KSLC 011623 AAA
TAFPVU
TAF AMD
KPVU 011623Z 0116/0212 15009KT P6SM FEW090 SCT150
      AMD LTD TO CLD VIS AND WIND=



000
FTUS45 KSLC 011622 AAA
TAFOGD
TAF AMD
KOGD 011622Z 0116/0212 20011G18KT P6SM FEW090 SCT150
     FM020200 17009KT P6SM SKC=



000
FTUS45 KSLC 011622 AAA
TAFOGD
TAF AMD
KOGD 011622Z 0116/0212 20011G18KT P6SM FEW090 SCT150
     FM020200 17009KT P6SM SKC=



000
FTUS45 KSLC 011622 AAA
TAFOGD
TAF AMD
KOGD 011622Z 0116/0212 20011G18KT P6SM FEW090 SCT150
     FM020200 17009KT P6SM SKC=



000
FTUS45 KSLC 011504 AAA
TAFSLC
TAF AMD
KSLC 011504Z 0115/0218 17015G24KT P6SM SCT100
     FM020300 17008KT P6SM SKC=



000
FTUS45 KSLC 011504 AAA
TAFSLC
TAF AMD
KSLC 011504Z 0115/0218 17015G24KT P6SM SCT100
     FM020300 17008KT P6SM SKC=



000
FTUS45 KSLC 011120
TAFLGU
TAF
KLGU 011120Z 0112/0212 VRB05KT P6SM SKC
     FM011800 21007KT P6SM SKC
     FM020300 VRB05KT P6SM SKC=



000
FTUS45 KSLC 011120
TAFPVU
TAF
KPVU 011120Z 0112/0212 VRB04KT P6SM SKC
     FM011800 15009KT P6SM SKC
      AMD LTD TO CLD VIS AND WIND=



000
FTUS45 KSLC 011120
TAFBCE
TAF
KBCE 011120Z 0112/0212 22007KT P6SM SCT120
     FM011700 19010G18KT P6SM SCT080
     FM020300 22007KT P6SM SCT100=



000
FTUS45 KSLC 011120
TAFSGU
TAF
KSGU 011120Z 0112/0212 10015KT P6SM SKC
     FM012000 24012G20KT P6SM SKC
     FM020300 15009KT P6SM SKC
      AMD LTD TO CLD VIS AND WIND=



000
FTUS45 KSLC 011120
TAFSGU
TAF
KSGU 011120Z 0112/0212 10015KT P6SM SKC
     FM012000 24012G20KT P6SM SKC
     FM020300 15009KT P6SM SKC
      AMD LTD TO CLD VIS AND WIND=



000
FTUS45 KSLC 011120
TAFCDC
TAF
KCDC 011120Z 0112/0212 19007KT P6SM SKC
     FM011700 20014G22KT P6SM SCT150
     FM020300 19007KT P6SM SCT150=



000
FTUS45 KSLC 011120
TAFBCE
TAF
KBCE 011120Z 0112/0212 22007KT P6SM SCT120
     FM011700 19010G18KT P6SM SCT080
     FM020300 22007KT P6SM SCT100=



000
FTUS45 KSLC 011120
TAFOGD
TAF
KOGD 011120Z 0112/0212 16008KT P6SM SKC
     FM011800 22010KT P6SM SKC
     FM020200 17009KT P6SM SKC=



000
FTUS45 KSLC 011120
TAFCDC
TAF
KCDC 011120Z 0112/0212 19007KT P6SM SKC
     FM011700 20014G22KT P6SM SCT150
     FM020300 19007KT P6SM SCT150=



000
FTUS45 KSLC 011120
TAFLGU
TAF
KLGU 011120Z 0112/0212 VRB05KT P6SM SKC
     FM011800 21007KT P6SM SKC
     FM020300 VRB05KT P6SM SKC=



000
FTUS45 KSLC 011120
TAFOGD
TAF
KOGD 011120Z 0112/0212 16008KT P6SM SKC
     FM011800 22010KT P6SM SKC
     FM020200 17009KT P6SM SKC=



000
FTUS45 KSLC 011120
TAFSLC
TAF
KSLC 011120Z 0112/0218 15013KT P6SM SKC
     FM011600 17015G22KT P6SM SKC
     FM020300 17008KT P6SM SKC=



000
FTUS45 KSLC 011120
TAFLGU
TAF
KLGU 011120Z 0112/0212 VRB05KT P6SM SKC
     FM011800 21007KT P6SM SKC
     FM020300 VRB05KT P6SM SKC=



000
FTUS45 KSLC 011120
TAFOGD
TAF
KOGD 011120Z 0112/0212 16008KT P6SM SKC
     FM011800 22010KT P6SM SKC
     FM020200 17009KT P6SM SKC=



000
FTUS45 KSLC 011120
TAFCDC
TAF
KCDC 011120Z 0112/0212 19007KT P6SM SKC
     FM011700 20014G22KT P6SM SCT150
     FM020300 19007KT P6SM SCT150=



000
FTUS45 KSLC 011120
TAFSLC
TAF
KSLC 011120Z 0112/0218 15013KT P6SM SKC
     FM011600 17015G22KT P6SM SKC
     FM020300 17008KT P6SM SKC=



000
FTUS45 KSLC 011120
TAFENV
TAF
KENV 011120Z 0112/0212 VRB04KT P6SM SKC
     FM011600 10007KT P6SM SKC
     FM020200 22010KT P6SM SKC
      AMD LTD TO CLD VIS AND WIND=



000
FTUS45 KSLC 011120
TAFENV
TAF
KENV 011120Z 0112/0212 VRB04KT P6SM SKC
     FM011600 10007KT P6SM SKC
     FM020200 22010KT P6SM SKC
      AMD LTD TO CLD VIS AND WIND=



000
FTUS45 KSLC 011120
TAFPVU
TAF
KPVU 011120Z 0112/0212 VRB04KT P6SM SKC
     FM011800 15009KT P6SM SKC
      AMD LTD TO CLD VIS AND WIND=



000
FTUS45 KSLC 011120
TAFPVU
TAF
KPVU 011120Z 0112/0212 VRB04KT P6SM SKC
     FM011800 15009KT P6SM SKC
      AMD LTD TO CLD VIS AND WIND=



000
FTUS45 KSLC 011120
TAFPVU
TAF
KPVU 011120Z 0112/0212 VRB04KT P6SM SKC
     FM011800 15009KT P6SM SKC
      AMD LTD TO CLD VIS AND WIND=



000
FTUS45 KSLC 011120
TAFCDC
TAF
KCDC 011120Z 0112/0212 19007KT P6SM SKC
     FM011700 20014G22KT P6SM SCT150
     FM020300 19007KT P6SM SCT150=



000
FTUS45 KSLC 011120
TAFSGU
TAF
KSGU 011120Z 0112/0212 10015KT P6SM SKC
     FM012000 24012G20KT P6SM SKC
     FM020300 15009KT P6SM SKC
      AMD LTD TO CLD VIS AND WIND=



000
FTUS45 KSLC 011120
TAFENV
TAF
KENV 011120Z 0112/0212 VRB04KT P6SM SKC
     FM011600 10007KT P6SM SKC
     FM020200 22010KT P6SM SKC
      AMD LTD TO CLD VIS AND WIND=



000
FTUS45 KSLC 011120
TAFBCE
TAF
KBCE 011120Z 0112/0212 22007KT P6SM SCT120
     FM011700 19010G18KT P6SM SCT080
     FM020300 22007KT P6SM SCT100=



000
FTUS45 KSLC 011120
TAFSLC
TAF
KSLC 011120Z 0112/0218 15013KT P6SM SKC
     FM011600 17015G22KT P6SM SKC
     FM020300 17008KT P6SM SKC=



000
FTUS45 KSLC 010905 AAA
TAFSLC
TAF AMD
KSLC 010905Z 0109/0212 17010KT P6SM SKC
     FM011700 17015G22KT P6SM SKC
     FM020300 17008KT P6SM SKC=



000
FTUS45 KSLC 010905 AAA
TAFSLC
TAF AMD
KSLC 010905Z 0109/0212 17010KT P6SM SKC
     FM011700 17015G22KT P6SM SKC
     FM020300 17008KT P6SM SKC=



000
FTUS45 KSLC 010526
TAFLGU
TAF
KLGU 010526Z 0106/0206 VRB05KT P6SM SKC
     FM011800 21007KT P6SM SKC
     FM020300 VRB05KT P6SM SKC=



000
FTUS45 KSLC 010526
TAFOGD
TAF
KOGD 010526Z 0106/0206 16008KT P6SM SKC
     FM011800 22010KT P6SM SKC
     FM020200 17009KT P6SM SKC=



000
FTUS45 KSLC 010526
TAFPVU
TAF
KPVU 010526Z 0106/0206 VRB04KT P6SM SKC
     FM011800 15009KT P6SM SKC
      AMD LTD TO CLD VIS AND WIND=



000
FTUS45 KSLC 010526
TAFENV
TAF
KENV 010526Z 0106/0206 VRB04KT P6SM SKC
     FM011600 10007KT P6SM SKC
     FM020200 22010KT P6SM SKC
      AMD LTD TO CLD VIS AND WIND=



000
FTUS45 KSLC 010526
TAFSLC
TAF
KSLC 010526Z 0106/0212 15007KT P6SM SKC
     FM011700 17015G22KT P6SM SKC
     FM020300 17008KT P6SM SKC=



000
FTUS45 KSLC 010526
TAFENV
TAF
KENV 010526Z 0106/0206 VRB04KT P6SM SKC
     FM011600 10007KT P6SM SKC
     FM020200 22010KT P6SM SKC
      AMD LTD TO CLD VIS AND WIND=



000
FTUS45 KSLC 010526
TAFLGU
TAF
KLGU 010526Z 0106/0206 VRB05KT P6SM SKC
     FM011800 21007KT P6SM SKC
     FM020300 VRB05KT P6SM SKC=



000
FTUS45 KSLC 010526
TAFOGD
TAF
KOGD 010526Z 0106/0206 16008KT P6SM SKC
     FM011800 22010KT P6SM SKC
     FM020200 17009KT P6SM SKC=



000
FTUS45 KSLC 010526
TAFPVU
TAF
KPVU 010526Z 0106/0206 VRB04KT P6SM SKC
     FM011800 15009KT P6SM SKC
      AMD LTD TO CLD VIS AND WIND=



000
FTUS45 KSLC 010526
TAFCDC
TAF
KCDC 010526Z 0106/0206 19007KT P6SM SKC
     FM011700 20014G22KT P6SM SCT150
     FM020300 19007KT P6SM SCT150=



000
FTUS45 KSLC 010526
TAFSGU
TAF
KSGU 010526Z 0106/0206 10015KT P6SM SKC
     FM012000 24012G20KT P6SM SKC
     FM020300 15009KT P6SM SKC
      AMD LTD TO CLD VIS AND WIND=



000
FTUS45 KSLC 010526
TAFCDC
TAF
KCDC 010526Z 0106/0206 19007KT P6SM SKC
     FM011700 20014G22KT P6SM SCT150
     FM020300 19007KT P6SM SCT150=



000
FTUS45 KSLC 010526
TAFSLC
TAF
KSLC 010526Z 0106/0212 15007KT P6SM SKC
     FM011700 17015G22KT P6SM SKC
     FM020300 17008KT P6SM SKC=



000
FTUS45 KSLC 010526
TAFSGU
TAF
KSGU 010526Z 0106/0206 10015KT P6SM SKC
     FM012000 24012G20KT P6SM SKC
     FM020300 15009KT P6SM SKC
      AMD LTD TO CLD VIS AND WIND=



000
FTUS45 KSLC 010526
TAFLGU
TAF
KLGU 010526Z 0106/0206 VRB05KT P6SM SKC
     FM011800 21007KT P6SM SKC
     FM020300 VRB05KT P6SM SKC=



000
FTUS45 KSLC 010526
TAFCDC
TAF
KCDC 010526Z 0106/0206 19007KT P6SM SKC
     FM011700 20014G22KT P6SM SCT150
     FM020300 19007KT P6SM SCT150=



000
FTUS45 KSLC 010526
TAFENV
TAF
KENV 010526Z 0106/0206 VRB04KT P6SM SKC
     FM011600 10007KT P6SM SKC
     FM020200 22010KT P6SM SKC
      AMD LTD TO CLD VIS AND WIND=



000
FTUS45 KSLC 010526
TAFOGD
TAF
KOGD 010526Z 0106/0206 16008KT P6SM SKC
     FM011800 22010KT P6SM SKC
     FM020200 17009KT P6SM SKC=



000
FTUS45 KSLC 010526
TAFPVU
TAF
KPVU 010526Z 0106/0206 VRB04KT P6SM SKC
     FM011800 15009KT P6SM SKC
      AMD LTD TO CLD VIS AND WIND=



000
FTUS45 KSLC 010526
TAFSGU
TAF
KSGU 010526Z 0106/0206 10015KT P6SM SKC
     FM012000 24012G20KT P6SM SKC
     FM020300 15009KT P6SM SKC
      AMD LTD TO CLD VIS AND WIND=



000
FTUS45 KSLC 010526
TAFLGU
TAF
KLGU 010526Z 0106/0206 VRB05KT P6SM SKC
     FM011800 21007KT P6SM SKC
     FM020300 VRB05KT P6SM SKC=



000
FTUS45 KSLC 010526
TAFSLC
TAF
KSLC 010526Z 0106/0212 15007KT P6SM SKC
     FM011700 17015G22KT P6SM SKC
     FM020300 17008KT P6SM SKC=



000
FTUS45 KSLC 010526
TAFBCE
TAF
KBCE 010526Z 0106/0206 22007KT P6SM SCT120
     FM011700 19010G18KT P6SM SCT080
     FM020300 22007KT P6SM SCT100=



000
FTUS45 KSLC 010526
TAFOGD
TAF
KOGD 010526Z 0106/0206 16008KT P6SM SKC
     FM011800 22010KT P6SM SKC
     FM020200 17009KT P6SM SKC=



000
FTUS45 KSLC 010526
TAFBCE
TAF
KBCE 010526Z 0106/0206 22007KT P6SM SCT120
     FM011700 19010G18KT P6SM SCT080
     FM020300 22007KT P6SM SCT100=



000
FTUS45 KSLC 010526
TAFPVU
TAF
KPVU 010526Z 0106/0206 VRB04KT P6SM SKC
     FM011800 15009KT P6SM SKC
      AMD LTD TO CLD VIS AND WIND=



000
FTUS45 KSLC 010526
TAFENV
TAF
KENV 010526Z 0106/0206 VRB04KT P6SM SKC
     FM011600 10007KT P6SM SKC
     FM020200 22010KT P6SM SKC
      AMD LTD TO CLD VIS AND WIND=



000
FTUS45 KSLC 010526
TAFBCE
TAF
KBCE 010526Z 0106/0206 22007KT P6SM SCT120
     FM011700 19010G18KT P6SM SCT080
     FM020300 22007KT P6SM SCT100=



000
FTUS45 KSLC 010526
TAFBCE
TAF
KBCE 010526Z 0106/0206 22007KT P6SM SCT120
     FM011700 19010G18KT P6SM SCT080
     FM020300 22007KT P6SM SCT100=



000
FTUS45 KSLC 010526
TAFSLC
TAF
KSLC 010526Z 0106/0212 15007KT P6SM SKC
     FM011700 17015G22KT P6SM SKC
     FM020300 17008KT P6SM SKC=



000
FTUS45 KSLC 010357 AAB
TAFSGU
TAF AMD
KSGU 010357Z 0104/0124 10015G25KT P6SM SKC
     FM012000 24012G20KT P6SM SKC
      AMD LTD TO CLD VIS AND WIND=



000
FTUS45 KSLC 010357 AAB
TAFSGU
TAF AMD
KSGU 010357Z 0104/0124 10015G25KT P6SM SKC
     FM012000 24012G20KT P6SM SKC
      AMD LTD TO CLD VIS AND WIND=



000
FTUS45 KSLC 010255 AAB
TAFSLC
TAF AMD
KSLC 010255Z 0103/0206 15007KT P6SM SKC
     FM011700 17015G22KT P6SM SKC
     FM020300 17008KT P6SM SKC=



000
FTUS45 KSLC 010255 AAB
TAFSLC
TAF AMD
KSLC 010255Z 0103/0206 15007KT P6SM SKC
     FM011700 17015G22KT P6SM SKC
     FM020300 17008KT P6SM SKC=



000
FTUS45 KSLC 010113 AAA
TAFSGU
TAF AMD
KSGU 010113Z 0101/0124 25006KT P6SM SCT150
     FM010300 13007KT P6SM SKC
     FM012000 24012G20KT P6SM SKC
      AMD LTD TO CLD VIS AND WIND=



000
FTUS45 KSLC 010113 AAA
TAFSGU
TAF AMD
KSGU 010113Z 0101/0124 25006KT P6SM SCT150
     FM010300 13007KT P6SM SKC
     FM012000 24012G20KT P6SM SKC
      AMD LTD TO CLD VIS AND WIND=



000
FTUS45 KSLC 010113 AAA
TAFBCE
TAF AMD
KBCE 010113Z 0101/0124 16010KT P6SM VCTS SCT070CB BKN120
     FM010300 22007KT P6SM SCT120
     FM011900 19010G18KT P6SM FEW080=



000
FTUS45 KSLC 010113 AAA
TAFBCE
TAF AMD
KBCE 010113Z 0101/0124 16010KT P6SM VCTS SCT070CB BKN120
     FM010300 22007KT P6SM SCT120
     FM011900 19010G18KT P6SM FEW080=



000
FTUS45 KSLC 010113 AAA
TAFSGU
TAF AMD
KSGU 010113Z 0101/0124 25006KT P6SM SCT150
     FM010300 13007KT P6SM SKC
     FM012000 24012G20KT P6SM SKC
      AMD LTD TO CLD VIS AND WIND=



000
FTUS45 KSLC 010113 AAA
TAFSGU
TAF AMD
KSGU 010113Z 0101/0124 25006KT P6SM SCT150
     FM010300 13007KT P6SM SKC
     FM012000 24012G20KT P6SM SKC
      AMD LTD TO CLD VIS AND WIND=



000
FTUS45 KSLC 010113 AAA
TAFBCE
TAF AMD
KBCE 010113Z 0101/0124 16010KT P6SM VCTS SCT070CB BKN120
     FM010300 22007KT P6SM SCT120
     FM011900 19010G18KT P6SM FEW080=



000
FTUS45 KSLC 010113 AAA
TAFBCE
TAF AMD
KBCE 010113Z 0101/0124 16010KT P6SM VCTS SCT070CB BKN120
     FM010300 22007KT P6SM SCT120
     FM011900 19010G18KT P6SM FEW080=



000
FTUS45 KSLC 010112 AAA
TAFCDC
TAF AMD
KCDC 010112Z 0101/0124 19007KT P6SM SKC
     FM011700 20014G22KT P6SM SCT150=



000
FTUS45 KSLC 010112 AAA
TAFCDC
TAF AMD
KCDC 010112Z 0101/0124 19007KT P6SM SKC
     FM011700 20014G22KT P6SM SCT150=



000
FTUS45 KSLC 010112 AAA
TAFCDC
TAF AMD
KCDC 010112Z 0101/0124 19007KT P6SM SKC
     FM011700 20014G22KT P6SM SCT150=



000
FTUS45 KSLC 010112 AAA
TAFCDC
TAF AMD
KCDC 010112Z 0101/0124 19007KT P6SM SKC
     FM011700 20014G22KT P6SM SCT150=



000
FTUS45 KSLC 312341
TAFPVU
TAF
KPVU 312341Z 0100/0124 15004KT P6SM SCT080
     FM010300 VRB04KT P6SM SKC
     FM011800 15009KT P6SM SKC
      AMD LTD TO CLD VIS AND WIND=



000
FTUS45 KSLC 312341
TAFOGD
TAF
KOGD 312341Z 0100/0124 29007KT P6SM FEW080
     FM010300 16005KT P6SM SKC
     FM011700 20010G18KT P6SM SKC=



000
FTUS45 KSLC 312341
TAFSGU
TAF
KSGU 312341Z 0100/0124 25011G17KT P6SM SCT150
     FM010200 13007KT P6SM SKC
     FM012000 24012G20KT P6SM SKC
      AMD LTD TO CLD VIS AND WIND=



000
FTUS45 KSLC 312341
TAFBCE
TAF
KBCE 312341Z 0100/0124 20012G20KT P6SM VCSH SCT070 BKN120
     FM010300 22007KT P6SM SCT120
     FM011900 19010G18KT P6SM FEW080=



000
FTUS45 KSLC 312341
TAFLGU
TAF
KLGU 312341Z 0100/0124 VRB05KT P6SM SKC
     FM011800 21009KT P6SM SKC=



000
FTUS45 KSLC 312341
TAFCDC
TAF
KCDC 312341Z 0100/0124 22014G22KT P6SM FEW080 SCT120
     FM010300 19007KT P6SM SKC
     FM011700 20014G22KT P6SM SCT150=



000
FTUS45 KSLC 312341
TAFENV
TAF
KENV 312341Z 0100/0124 12007KT P6SM SKC
     FM010200 VRB04KT P6SM SKC
     FM011600 10007KT P6SM SKC
      AMD LTD TO CLD VIS AND WIND=



000
FTUS45 KSLC 312341
TAFSLC
TAF
KSLC 312341Z 0100/0206 31008KT P6SM FEW080
     FM010300 15007KT P6SM SKC
     FM011700 17015G22KT P6SM SKC
     FM020300 17008KT P6SM SKC=



000
FTUS45 KSLC 312341
TAFPVU
TAF
KPVU 312341Z 0100/0124 15004KT P6SM SCT080
     FM010300 VRB04KT P6SM SKC
     FM011800 15009KT P6SM SKC
      AMD LTD TO CLD VIS AND WIND=



000
FTUS45 KSLC 312341
TAFOGD
TAF
KOGD 312341Z 0100/0124 29007KT P6SM FEW080
     FM010300 16005KT P6SM SKC
     FM011700 20010G18KT P6SM SKC=



000
FTUS45 KSLC 312341
TAFSLC
TAF
KSLC 312341Z 0100/0206 31008KT P6SM FEW080
     FM010300 15007KT P6SM SKC
     FM011700 17015G22KT P6SM SKC
     FM020300 17008KT P6SM SKC=



000
FTUS45 KSLC 312341
TAFBCE
TAF
KBCE 312341Z 0100/0124 20012G20KT P6SM VCSH SCT070 BKN120
     FM010300 22007KT P6SM SCT120
     FM011900 19010G18KT P6SM FEW080=



000
FTUS45 KSLC 312341
TAFSGU
TAF
KSGU 312341Z 0100/0124 25011G17KT P6SM SCT150
     FM010200 13007KT P6SM SKC
     FM012000 24012G20KT P6SM SKC
      AMD LTD TO CLD VIS AND WIND=



000
FTUS45 KSLC 312341
TAFCDC
TAF
KCDC 312341Z 0100/0124 22014G22KT P6SM FEW080 SCT120
     FM010300 19007KT P6SM SKC
     FM011700 20014G22KT P6SM SCT150=



000
FTUS45 KSLC 312341
TAFLGU
TAF
KLGU 312341Z 0100/0124 VRB05KT P6SM SKC
     FM011800 21009KT P6SM SKC=



000
FTUS45 KSLC 312341
TAFENV
TAF
KENV 312341Z 0100/0124 12007KT P6SM SKC
     FM010200 VRB04KT P6SM SKC
     FM011600 10007KT P6SM SKC
      AMD LTD TO CLD VIS AND WIND=



000
FTUS45 KSLC 312056 AAA
TAFBCE
TAF AMD
KBCE 312056Z 3121/0118 20012G20KT P6SM VCSH SCT070 BKN120
     FM010300 22007KT P6SM SCT070 BKN120=



000
FTUS45 KSLC 312056 AAA
TAFBCE
TAF AMD
KBCE 312056Z 3121/0118 20012G20KT P6SM VCSH SCT070 BKN120
     FM010300 22007KT P6SM SCT070 BKN120=



000
FTUS45 KSLC 312054 AAA
TAFSLC
TAF AMD
KSLC 312054Z 3121/0124 31008KT P6SM FEW080
     FM010300 15007KT P6SM SKC
     FM011700 17015G22KT P6SM SKC=



000
FTUS45 KSLC 312054 AAA
TAFSLC
TAF AMD
KSLC 312054Z 3121/0124 31008KT P6SM FEW080
     FM010300 15007KT P6SM SKC
     FM011700 17015G22KT P6SM SKC=



000
FTUS45 KSLC 312054 AAA
TAFSLC
TAF AMD
KSLC 312054Z 3121/0124 31008KT P6SM FEW080
     FM010300 15007KT P6SM SKC
     FM011700 17015G22KT P6SM SKC=



000
FTUS45 KSLC 311742
TAFOGD
TAF
KOGD 311742Z 3118/0118 29007KT P6SM FEW080
     FM010300 16005KT P6SM SKC=



000
FTUS45 KSLC 311742
TAFLGU
TAF
KLGU 311742Z 3118/0118 VRB05KT P6SM SKC=



000
FTUS45 KSLC 311742
TAFCDC
TAF
KCDC 311742Z 3118/0118 22016G24KT P6SM FEW080 SCT120
     FM010300 19007KT P6SM SKC
     FM011600 20012G20KT P6SM SCT150=



000
FTUS45 KSLC 311742
TAFPVU
TAF
KPVU 311742Z 3118/0118 VRB04KT P6SM FEW080
      AMD LTD TO CLD VIS AND WIND=



000
FTUS45 KSLC 311742
TAFSLC
TAF
KSLC 311742Z 3118/0124 31008KT P6SM FEW080
     FM010300 15007KT P6SM SKC
     FM011700 17015G22KT P6SM SKC=



000
FTUS45 KSLC 311742
TAFBCE
TAF
KBCE 311742Z 3118/0118 22010KT P6SM VCSH SCT070 BKN120
     FM010300 22007KT P6SM SCT070 BKN120=



000
FTUS45 KSLC 311742
TAFSGU
TAF
KSGU 311742Z 3118/0118 13009KT P6SM SCT150
     FM312000 25011G17KT P6SM SCT150
     FM010200 13007KT P6SM SCT200
      AMD LTD TO CLD VIS AND WIND=



000
FTUS45 KSLC 311742
TAFENV
TAF
KENV 311742Z 3118/0118 12007KT P6SM SKC
     FM010200 VRB04KT P6SM SKC
     FM011600 10007KT P6SM SKC
      AMD LTD TO CLD VIS AND WIND=



000
FTUS45 KSLC 311742
TAFPVU
TAF
KPVU 311742Z 3118/0118 VRB04KT P6SM FEW080
      AMD LTD TO CLD VIS AND WIND=



000
FTUS45 KSLC 311742
TAFOGD
TAF
KOGD 311742Z 3118/0118 29007KT P6SM FEW080
     FM010300 16005KT P6SM SKC=



000
FTUS45 KSLC 311742
TAFLGU
TAF
KLGU 311742Z 3118/0118 VRB05KT P6SM SKC=



000
FTUS45 KSLC 311742
TAFBCE
TAF
KBCE 311742Z 3118/0118 22010KT P6SM VCSH SCT070 BKN120
     FM010300 22007KT P6SM SCT070 BKN120=



000
FTUS45 KSLC 311742
TAFENV
TAF
KENV 311742Z 3118/0118 12007KT P6SM SKC
     FM010200 VRB04KT P6SM SKC
     FM011600 10007KT P6SM SKC
      AMD LTD TO CLD VIS AND WIND=



000
FTUS45 KSLC 311742
TAFCDC
TAF
KCDC 311742Z 3118/0118 22016G24KT P6SM FEW080 SCT120
     FM010300 19007KT P6SM SKC
     FM011600 20012G20KT P6SM SCT150=



000
FTUS45 KSLC 311742
TAFSGU
TAF
KSGU 311742Z 3118/0118 13009KT P6SM SCT150
     FM312000 25011G17KT P6SM SCT150
     FM010200 13007KT P6SM SCT200
      AMD LTD TO CLD VIS AND WIND=



000
FTUS45 KSLC 311742
TAFSLC
TAF
KSLC 311742Z 3118/0124 31008KT P6SM FEW080
     FM010300 15007KT P6SM SKC
     FM011700 17015G22KT P6SM SKC=



000
FTUS45 KSLC 311742
TAFENV
TAF
KENV 311742Z 3118/0118 12007KT P6SM SKC
     FM010200 VRB04KT P6SM SKC
     FM011600 10007KT P6SM SKC
      AMD LTD TO CLD VIS AND WIND=



000
FTUS45 KSLC 311742
TAFSLC
TAF
KSLC 311742Z 3118/0124 31008KT P6SM FEW080
     FM010300 15007KT P6SM SKC
     FM011700 17015G22KT P6SM SKC=



000
FTUS45 KSLC 311742
TAFCDC
TAF
KCDC 311742Z 3118/0118 22016G24KT P6SM FEW080 SCT120
     FM010300 19007KT P6SM SKC
     FM011600 20012G20KT P6SM SCT150=



000
FTUS45 KSLC 311742
TAFPVU
TAF
KPVU 311742Z 3118/0118 VRB04KT P6SM FEW080
      AMD LTD TO CLD VIS AND WIND=



000
FTUS45 KSLC 311742
TAFBCE
TAF
KBCE 311742Z 3118/0118 22010KT P6SM VCSH SCT070 BKN120
     FM010300 22007KT P6SM SCT070 BKN120=



000
FTUS45 KSLC 311742
TAFSGU
TAF
KSGU 311742Z 3118/0118 13009KT P6SM SCT150
     FM312000 25011G17KT P6SM SCT150
     FM010200 13007KT P6SM SCT200
      AMD LTD TO CLD VIS AND WIND=



000
FTUS45 KSLC 311742
TAFENV
TAF
KENV 311742Z 3118/0118 12007KT P6SM SKC
     FM010200 VRB04KT P6SM SKC
     FM011600 10007KT P6SM SKC
      AMD LTD TO CLD VIS AND WIND=



000
FTUS45 KSLC 311742
TAFOGD
TAF
KOGD 311742Z 3118/0118 29007KT P6SM FEW080
     FM010300 16005KT P6SM SKC=



000
FTUS45 KSLC 311742
TAFLGU
TAF
KLGU 311742Z 3118/0118 VRB05KT P6SM SKC=



000
FTUS45 KSLC 311742
TAFLGU
TAF
KLGU 311742Z 3118/0118 VRB05KT P6SM SKC=



000
FTUS45 KSLC 311742
TAFBCE
TAF
KBCE 311742Z 3118/0118 22010KT P6SM VCSH SCT070 BKN120
     FM010300 22007KT P6SM SCT070 BKN120=



000
FTUS45 KSLC 311742
TAFCDC
TAF
KCDC 311742Z 3118/0118 22016G24KT P6SM FEW080 SCT120
     FM010300 19007KT P6SM SKC
     FM011600 20012G20KT P6SM SCT150=



000
FTUS45 KSLC 311742
TAFPVU
TAF
KPVU 311742Z 3118/0118 VRB04KT P6SM FEW080
      AMD LTD TO CLD VIS AND WIND=



000
FTUS45 KSLC 311742
TAFOGD
TAF
KOGD 311742Z 3118/0118 29007KT P6SM FEW080
     FM010300 16005KT P6SM SKC=



000
FTUS45 KSLC 311742
TAFSLC
TAF
KSLC 311742Z 3118/0124 31008KT P6SM FEW080
     FM010300 15007KT P6SM SKC
     FM011700 17015G22KT P6SM SKC=



000
FTUS45 KSLC 311742
TAFSGU
TAF
KSGU 311742Z 3118/0118 13009KT P6SM SCT150
     FM312000 25011G17KT P6SM SCT150
     FM010200 13007KT P6SM SCT200
      AMD LTD TO CLD VIS AND WIND=



000
FTUS45 KSLC 311506 AAB
TAFSLC
TAF AMD
KSLC 311506Z 3115/0118 17005KT P6SM FEW080 FEW100
     FM311600 31005KT P6SM FEW080 FEW100
     FM311800 31008KT P6SM FEW080 SCT100
     FM010300 15006KT P6SM SKC=



000
FTUS45 KSLC 311506 AAB
TAFSLC
TAF AMD
KSLC 311506Z 3115/0118 17005KT P6SM FEW080 FEW100
     FM311600 31005KT P6SM FEW080 FEW100
     FM311800 31008KT P6SM FEW080 SCT100
     FM010300 15006KT P6SM SKC=



000
FTUS45 KSLC 311141 AAA
TAFOGD
TAF AMD
KOGD 311141Z 3112/0112 13008KT P6SM VCSH SCT100 SCT120
     FM311400 29007KT P6SM SCT120
     FM010300 16005KT P6SM SCT120=



000
FTUS45 KSLC 311141 AAA
TAFOGD
TAF AMD
KOGD 311141Z 3112/0112 13008KT P6SM VCSH SCT100 SCT120
     FM311400 29007KT P6SM SCT120
     FM010300 16005KT P6SM SCT120=



000
FTUS45 KSLC 311141 AAA
TAFOGD
TAF AMD
KOGD 311141Z 3112/0112 13008KT P6SM VCSH SCT100 SCT120
     FM311400 29007KT P6SM SCT120
     FM010300 16005KT P6SM SCT120=



000
FTUS45 KSLC 311141 AAA
TAFOGD
TAF AMD
KOGD 311141Z 3112/0112 13008KT P6SM VCSH SCT100 SCT120
     FM311400 29007KT P6SM SCT120
     FM010300 16005KT P6SM SCT120=



000
FTUS45 KSLC 311139 AAA
TAFSLC
TAF AMD
KSLC 311139Z 3112/0118 13007KT P6SM SCT100 SCT120
     FM311400 31007KT P6SM SCT150
     FM010300 15006KT P6SM SKC=



000
FTUS45 KSLC 311139 AAA
TAFSLC
TAF AMD
KSLC 311139Z 3112/0118 13007KT P6SM SCT100 SCT120
     FM311400 31007KT P6SM SCT150
     FM010300 15006KT P6SM SKC=



000
FTUS45 KSLC 311139 AAA
TAFSLC
TAF AMD
KSLC 311139Z 3112/0118 13007KT P6SM SCT100 SCT120
     FM311400 31007KT P6SM SCT150
     FM010300 15006KT P6SM SKC=



000
FTUS45 KSLC 311120
TAFENV
TAF
KENV 311120Z 3112/0112 VRB04KT P6SM VCSH SCT080 BKN100
     FM311400 VRB05KT P6SM SCT120
     FM311600 10007KT P6SM SKC
      AMD LTD TO CLD VIS AND WIND=



000
FTUS45 KSLC 311120
TAFBCE
TAF
KBCE 311120Z 3112/0112 26005KT P6SM FEW070
     FM311800 22010KT P6SM VCSH SCT070 BKN120
     FM010300 22007KT P6SM SCT070 BKN120=



000
FTUS45 KSLC 311120
TAFPVU
TAF
KPVU 311120Z 3112/0112 VRB04KT P6SM SCT120
      AMD LTD TO CLD VIS AND WIND=



000
FTUS45 KSLC 311120
TAFOGD
TAF
KOGD 311120Z 3112/0112 VRB04KT P6SM SCT100 SCT120
     FM311600 32007KT P6SM SCT120
     FM010300 16005KT P6SM SCT120=



000
FTUS45 KSLC 311120
TAFLGU
TAF
KLGU 311120Z 3112/0112 VRB05KT P6SM SCT200=



000
FTUS45 KSLC 311120
TAFSLC
TAF
KSLC 311120Z 3112/0118 33007KT P6SM SCT100 SCT120
     FM010300 15006KT P6SM SCT120=



000
FTUS45 KSLC 311120
TAFENV
TAF
KENV 311120Z 3112/0112 VRB04KT P6SM VCSH SCT080 BKN100
     FM311400 VRB05KT P6SM SCT120
     FM311600 10007KT P6SM SKC
      AMD LTD TO CLD VIS AND WIND=



000
FTUS45 KSLC 311120
TAFLGU
TAF
KLGU 311120Z 3112/0112 VRB05KT P6SM SCT200=



000
FTUS45 KSLC 311120
TAFSLC
TAF
KSLC 311120Z 3112/0118 33007KT P6SM SCT100 SCT120
     FM010300 15006KT P6SM SCT120=



000
FTUS45 KSLC 311120
TAFPVU
TAF
KPVU 311120Z 3112/0112 VRB04KT P6SM SCT120
      AMD LTD TO CLD VIS AND WIND=



000
FTUS45 KSLC 311120
TAFENV
TAF
KENV 311120Z 3112/0112 VRB04KT P6SM VCSH SCT080 BKN100
     FM311400 VRB05KT P6SM SCT120
     FM311600 10007KT P6SM SKC
      AMD LTD TO CLD VIS AND WIND=



000
FTUS45 KSLC 311120
TAFPVU
TAF
KPVU 311120Z 3112/0112 VRB04KT P6SM SCT120
      AMD LTD TO CLD VIS AND WIND=



000
FTUS45 KSLC 311120
TAFCDC
TAF
KCDC 311120Z 3112/0112 17007KT P6SM SCT200
     FM311800 22011G17KT P6SM SCT120
     FM010300 19006KT P6SM SCT120=



000
FTUS45 KSLC 311120
TAFOGD
TAF
KOGD 311120Z 3112/0112 VRB04KT P6SM SCT100 SCT120
     FM311600 32007KT P6SM SCT120
     FM010300 16005KT P6SM SCT120=



000
FTUS45 KSLC 311120
TAFSGU
TAF
KSGU 311120Z 3112/0112 13009KT P6SM SKC
     FM312000 25011G17KT P6SM SCT200
     FM010200 13007KT P6SM SCT200
      AMD LTD TO CLD VIS AND WIND=



000
FTUS45 KSLC 311120
TAFCDC
TAF
KCDC 311120Z 3112/0112 17007KT P6SM SCT200
     FM311800 22011G17KT P6SM SCT120
     FM010300 19006KT P6SM SCT120=



000
FTUS45 KSLC 311120
TAFSLC
TAF
KSLC 311120Z 3112/0118 33007KT P6SM SCT100 SCT120
     FM010300 15006KT P6SM SCT120=



000
FTUS45 KSLC 311120
TAFLGU
TAF
KLGU 311120Z 3112/0112 VRB05KT P6SM SCT200=



000
FTUS45 KSLC 311120
TAFSLC
TAF
KSLC 311120Z 3112/0118 33007KT P6SM SCT100 SCT120
     FM010300 15006KT P6SM SCT120=



000
FTUS45 KSLC 311120
TAFBCE
TAF
KBCE 311120Z 3112/0112 26005KT P6SM FEW070
     FM311800 22010KT P6SM VCSH SCT070 BKN120
     FM010300 22007KT P6SM SCT070 BKN120=



000
FTUS45 KSLC 311120
TAFLGU
TAF
KLGU 311120Z 3112/0112 VRB05KT P6SM SCT200=



000
FTUS45 KSLC 311120
TAFOGD
TAF
KOGD 311120Z 3112/0112 VRB04KT P6SM SCT100 SCT120
     FM311600 32007KT P6SM SCT120
     FM010300 16005KT P6SM SCT120=



000
FTUS45 KSLC 311120
TAFCDC
TAF
KCDC 311120Z 3112/0112 17007KT P6SM SCT200
     FM311800 22011G17KT P6SM SCT120
     FM010300 19006KT P6SM SCT120=



000
FTUS45 KSLC 311120
TAFBCE
TAF
KBCE 311120Z 3112/0112 26005KT P6SM FEW070
     FM311800 22010KT P6SM VCSH SCT070 BKN120
     FM010300 22007KT P6SM SCT070 BKN120=



000
FTUS45 KSLC 311120
TAFSGU
TAF
KSGU 311120Z 3112/0112 13009KT P6SM SKC
     FM312000 25011G17KT P6SM SCT200
     FM010200 13007KT P6SM SCT200
      AMD LTD TO CLD VIS AND WIND=



000
FTUS45 KSLC 311120
TAFBCE
TAF
KBCE 311120Z 3112/0112 26005KT P6SM FEW070
     FM311800 22010KT P6SM VCSH SCT070 BKN120
     FM010300 22007KT P6SM SCT070 BKN120=



000
FTUS45 KSLC 311120
TAFSGU
TAF
KSGU 311120Z 3112/0112 13009KT P6SM SKC
     FM312000 25011G17KT P6SM SCT200
     FM010200 13007KT P6SM SCT200
      AMD LTD TO CLD VIS AND WIND=



000
FTUS45 KSLC 311120
TAFENV
TAF
KENV 311120Z 3112/0112 VRB04KT P6SM VCSH SCT080 BKN100
     FM311400 VRB05KT P6SM SCT120
     FM311600 10007KT P6SM SKC
      AMD LTD TO CLD VIS AND WIND=



000
FTUS45 KSLC 311120
TAFOGD
TAF
KOGD 311120Z 3112/0112 VRB04KT P6SM SCT100 SCT120
     FM311600 32007KT P6SM SCT120
     FM010300 16005KT P6SM SCT120=



000
FTUS45 KSLC 311047 AAB
TAFSGU
TAF AMD
KSGU 311047Z 3111/0106 13009KT P6SM SKC
     FM312000 25011G17KT P6SM SCT200
     FM010200 13007KT P6SM SCT200
      AMD LTD TO CLD VIS AND WIND=



000
FTUS45 KSLC 311047 AAB
TAFSGU
TAF AMD
KSGU 311047Z 3111/0106 13009KT P6SM SKC
     FM312000 25011G17KT P6SM SCT200
     FM010200 13007KT P6SM SCT200
      AMD LTD TO CLD VIS AND WIND=



000
FTUS45 KSLC 310937 AAB
TAFENV
TAF AMD
KENV 310937Z 3110/0106 02007KT P6SM VCSH SCT100 BKN120
     FM311100 02007KT P6SM SCT120
     FM311600 10007KT P6SM SKC
      AMD LTD TO CLD VIS AND WIND=



000
FTUS45 KSLC 310937 AAB
TAFENV
TAF AMD
KENV 310937Z 3110/0106 02007KT P6SM VCSH SCT100 BKN120
     FM311100 02007KT P6SM SCT120
     FM311600 10007KT P6SM SKC
      AMD LTD TO CLD VIS AND WIND=



000
FTUS45 KSLC 310937 AAC
TAFSLC
TAF AMD
KSLC 310937Z 3110/0112 33006KT P6SM VCSH SCT100 BKN120
     FM311100 33007KT P6SM SCT100 SCT120
     FM010300 15006KT P6SM SCT120=



000
FTUS45 KSLC 310937 AAC
TAFSLC
TAF AMD
KSLC 310937Z 3110/0112 33006KT P6SM VCSH SCT100 BKN120
     FM311100 33007KT P6SM SCT100 SCT120
     FM010300 15006KT P6SM SCT120=



000
FTUS45 KSLC 310905 AAB
TAFSLC
TAF AMD
KSLC 310905Z 3109/0112 33006KT P6SM SCT120
     FM010300 15006KT P6SM SCT120=



000
FTUS45 KSLC 310715 AAA
TAFSGU
TAF AMD
KSGU 310715Z 3107/0106 10009KT P6SM SKC
     FM312000 25011G17KT P6SM SCT200
     FM010200 13007KT P6SM SCT200
      AMD LTD TO CLD VIS AND WIND=



000
FTUS45 KSLC 310715 AAA
TAFSGU
TAF AMD
KSGU 310715Z 3107/0106 10009KT P6SM SKC
     FM312000 25011G17KT P6SM SCT200
     FM010200 13007KT P6SM SCT200
      AMD LTD TO CLD VIS AND WIND=



000
FTUS45 KSLC 310715 AAA
TAFENV
TAF AMD
KENV 310715Z 3107/0106 02007KT P6SM SKC
     FM311600 10007KT P6SM SKC
      AMD LTD TO CLD VIS AND WIND=



000
FTUS45 KSLC 310621 AAA
TAFSLC
TAF AMD
KSLC 310621Z 3106/0112 33006KT P6SM SCT120
     FM010300 15006KT P6SM SCT120=



000
FTUS45 KSLC 310621 AAA
TAFSLC
TAF AMD
KSLC 310621Z 3106/0112 33006KT P6SM SCT120
     FM010300 15006KT P6SM SCT120=



000
FTUS45 KSLC 310621 AAA
TAFSLC
TAF AMD
KSLC 310621Z 3106/0112 33006KT P6SM SCT120
     FM010300 15006KT P6SM SCT120=



000
FTUS45 KSLC 310621 AAA
TAFSLC
TAF AMD
KSLC 310621Z 3106/0112 33006KT P6SM SCT120
     FM010300 15006KT P6SM SCT120=



000
FTUS45 KSLC 310532
TAFBCE
TAF
KBCE 310532Z 3106/0106 26005KT P6SM FEW070
     FM311800 22010KT P6SM VCSH SCT070 BKN120
     FM010300 22007KT P6SM SCT070 BKN120=



000
FTUS45 KSLC 310532
TAFOGD
TAF
KOGD 310532Z 3106/0106 32007KT P6SM SCT120=



000
FTUS45 KSLC 310532
TAFSGU
TAF
KSGU 310532Z 3106/0106 11015G25KT P6SM SKC
     FM310900 11009KT P6SM SKC
     FM312000 25011G17KT P6SM SCT200
     FM010200 13007KT P6SM SCT200
      AMD LTD TO CLD VIS AND WIND=



000
FTUS45 KSLC 310532
TAFLGU
TAF
KLGU 310532Z 3106/0106 VRB05KT P6SM SCT200=



000
FTUS45 KSLC 310532
TAFCDC
TAF
KCDC 310532Z 3106/0106 17007KT P6SM SCT200
     FM311800 22011G17KT P6SM SCT120
     FM010300 19006KT P6SM SCT120=



000
FTUS45 KSLC 310532
TAFPVU
TAF
KPVU 310532Z 3106/0106 VRB04KT P6SM FEW120
      AMD LTD TO CLD VIS AND WIND=



000
FTUS45 KSLC 310532
TAFSLC
TAF
KSLC 310532Z 3106/0112 17006KT P6SM SCT120
     FM310900 33006KT P6SM SCT120
     FM010300 15006KT P6SM SCT120=



000
FTUS45 KSLC 310532
TAFENV
TAF
KENV 310532Z 3106/0106 33010G17KT P6SM SKC
     FM311000 31007KT P6SM SKC
     FM311600 10007KT P6SM SKC
      AMD LTD TO CLD VIS AND WIND=



000
FTUS45 KSLC 310532
TAFBCE
TAF
KBCE 310532Z 3106/0106 26005KT P6SM FEW070
     FM311800 22010KT P6SM VCSH SCT070 BKN120
     FM010300 22007KT P6SM SCT070 BKN120=



000
FTUS45 KSLC 310532
TAFOGD
TAF
KOGD 310532Z 3106/0106 32007KT P6SM SCT120=



000
FTUS45 KSLC 310532
TAFCDC
TAF
KCDC 310532Z 3106/0106 17007KT P6SM SCT200
     FM311800 22011G17KT P6SM SCT120
     FM010300 19006KT P6SM SCT120=



000
FTUS45 KSLC 310532
TAFPVU
TAF
KPVU 310532Z 3106/0106 VRB04KT P6SM FEW120
      AMD LTD TO CLD VIS AND WIND=



000
FTUS45 KSLC 310532
TAFSLC
TAF
KSLC 310532Z 3106/0112 17006KT P6SM SCT120
     FM310900 33006KT P6SM SCT120
     FM010300 15006KT P6SM SCT120=



000
FTUS45 KSLC 310532
TAFENV
TAF
KENV 310532Z 3106/0106 33010G17KT P6SM SKC
     FM311000 31007KT P6SM SKC
     FM311600 10007KT P6SM SKC
      AMD LTD TO CLD VIS AND WIND=



000
FTUS45 KSLC 310532
TAFSGU
TAF
KSGU 310532Z 3106/0106 11015G25KT P6SM SKC
     FM310900 11009KT P6SM SKC
     FM312000 25011G17KT P6SM SCT200
     FM010200 13007KT P6SM SCT200
      AMD LTD TO CLD VIS AND WIND=



000
FTUS45 KSLC 310532
TAFLGU
TAF
KLGU 310532Z 3106/0106 VRB05KT P6SM SCT200=



000
FTUS45 KSLC 310532
TAFENV
TAF
KENV 310532Z 3106/0106 33010G17KT P6SM SKC
     FM311000 31007KT P6SM SKC
     FM311600 10007KT P6SM SKC
      AMD LTD TO CLD VIS AND WIND=



000
FTUS45 KSLC 310532
TAFPVU
TAF
KPVU 310532Z 3106/0106 VRB04KT P6SM FEW120
      AMD LTD TO CLD VIS AND WIND=



000
FTUS45 KSLC 310532
TAFPVU
TAF
KPVU 310532Z 3106/0106 VRB04KT P6SM FEW120
      AMD LTD TO CLD VIS AND WIND=



000
FTUS45 KSLC 310532
TAFSLC
TAF
KSLC 310532Z 3106/0112 17006KT P6SM SCT120
     FM310900 33006KT P6SM SCT120
     FM010300 15006KT P6SM SCT120=



000
FTUS45 KSLC 310532
TAFSGU
TAF
KSGU 310532Z 3106/0106 11015G25KT P6SM SKC
     FM310900 11009KT P6SM SKC
     FM312000 25011G17KT P6SM SCT200
     FM010200 13007KT P6SM SCT200
      AMD LTD TO CLD VIS AND WIND=



000
FTUS45 KSLC 310532
TAFSLC
TAF
KSLC 310532Z 3106/0112 17006KT P6SM SCT120
     FM310900 33006KT P6SM SCT120
     FM010300 15006KT P6SM SCT120=



000
FTUS45 KSLC 310532
TAFCDC
TAF
KCDC 310532Z 3106/0106 17007KT P6SM SCT200
     FM311800 22011G17KT P6SM SCT120
     FM010300 19006KT P6SM SCT120=



000
FTUS45 KSLC 310532
TAFOGD
TAF
KOGD 310532Z 3106/0106 32007KT P6SM SCT120=



000
FTUS45 KSLC 310532
TAFLGU
TAF
KLGU 310532Z 3106/0106 VRB05KT P6SM SCT200=



000
FTUS45 KSLC 310532
TAFBCE
TAF
KBCE 310532Z 3106/0106 26005KT P6SM FEW070
     FM311800 22010KT P6SM VCSH SCT070 BKN120
     FM010300 22007KT P6SM SCT070 BKN120=



000
FTUS45 KSLC 310532
TAFENV
TAF
KENV 310532Z 3106/0106 33010G17KT P6SM SKC
     FM311000 31007KT P6SM SKC
     FM311600 10007KT P6SM SKC
      AMD LTD TO CLD VIS AND WIND=



000
FTUS45 KSLC 310514 AAA
TAFSGU
TAF AMD
KSGU 310514Z 3105/3124 11015G25KT P6SM SKC
     FM310900 11009KT P6SM SKC
     FM312000 25011G17KT P6SM SCT200
      AMD LTD TO CLD VIS AND WIND=



000
FTUS45 KSLC 310514 AAA
TAFSGU
TAF AMD
KSGU 310514Z 3105/3124 11015G25KT P6SM SKC
     FM310900 11009KT P6SM SKC
     FM312000 25011G17KT P6SM SCT200
      AMD LTD TO CLD VIS AND WIND=



000
FTUS45 KSLC 310514 AAA
TAFSGU
TAF AMD
KSGU 310514Z 3105/3124 11015G25KT P6SM SKC
     FM310900 11009KT P6SM SKC
     FM312000 25011G17KT P6SM SCT200
      AMD LTD TO CLD VIS AND WIND=



000
FTUS45 KSLC 310514 AAA
TAFSGU
TAF AMD
KSGU 310514Z 3105/3124 11015G25KT P6SM SKC
     FM310900 11009KT P6SM SKC
     FM312000 25011G17KT P6SM SCT200
      AMD LTD TO CLD VIS AND WIND=



000
FTUS45 KSLC 310509 AAB
TAFENV
TAF AMD
KENV 310509Z 3105/3124 31010G17KT P6SM SKC
     FM311000 31007KT P6SM SKC
     FM311600 10007KT P6SM SKC
      AMD LTD TO CLD VIS AND WIND=



000
FTUS45 KSLC 310509 AAB
TAFENV
TAF AMD
KENV 310509Z 3105/3124 31010G17KT P6SM SKC
     FM311000 31007KT P6SM SKC
     FM311600 10007KT P6SM SKC
      AMD LTD TO CLD VIS AND WIND=



000
FTUS45 KSLC 310509 AAB
TAFENV
TAF AMD
KENV 310509Z 3105/3124 31010G17KT P6SM SKC
     FM311000 31007KT P6SM SKC
     FM311600 10007KT P6SM SKC
      AMD LTD TO CLD VIS AND WIND=



000
FTUS45 KSLC 310314 AAA
TAFLGU
TAF AMD
KLGU 310314Z 3103/3124 36009G15KT P6SM FEW080 BKN150
     FM310400 VRB05KT P6SM SCT200=



000
FTUS45 KSLC 310314 AAA
TAFLGU
TAF AMD
KLGU 310314Z 3103/3124 36009G15KT P6SM FEW080 BKN150
     FM310400 VRB05KT P6SM SCT200=



000
FTUS45 KSLC 310314 AAA
TAFENV
TAF AMD
KENV 310314Z 3103/3124 31007KT P6SM SKC
     FM311600 10007KT P6SM SKC
      AMD LTD TO CLD VIS AND WIND=



000
FTUS45 KSLC 310314 AAA
TAFENV
TAF AMD
KENV 310314Z 3103/3124 31007KT P6SM SKC
     FM311600 10007KT P6SM SKC
      AMD LTD TO CLD VIS AND WIND=



000
FTUS45 KSLC 310313 AAB
TAFSLC
TAF AMD
KSLC 310313Z 3103/0106 20004KT P6SM FEW080 SCT100 BKN150
     FM310400 17006KT P6SM SCT120
     FM311900 33007KT P6SM SCT120
     FM010300 15006KT P6SM SCT120=



000
FTUS45 KSLC 310313 AAB
TAFSLC
TAF AMD
KSLC 310313Z 3103/0106 20004KT P6SM FEW080 SCT100 BKN150
     FM310400 17006KT P6SM SCT120
     FM311900 33007KT P6SM SCT120
     FM010300 15006KT P6SM SCT120=



000
FTUS45 KSLC 310119 AAA
TAFPVU
TAF AMD
KPVU 310119Z 3101/3124 35011KT P6SM SCT080 BKN120
     FM310400 VRB04KT P6SM FEW120
      AMD LTD TO CLD VIS AND WIND=



000
FTUS45 KSLC 310119 AAA
TAFPVU
TAF AMD
KPVU 310119Z 3101/3124 35011KT P6SM SCT080 BKN120
     FM310400 VRB04KT P6SM FEW120
      AMD LTD TO CLD VIS AND WIND=



000
FTUS45 KSLC 302339
TAFSLC
TAF
KSLC 302339Z 3100/0106 33009G15KT P6SM FEW080 SCT100 BKN150
     FM310400 17006KT P6SM SCT120
     FM311900 33007KT P6SM SCT120
     FM010300 15006KT P6SM SCT120=



000
FTUS45 KSLC 302339
TAFOGD
TAF
KOGD 302339Z 3100/3124 29010KT P6SM SCT120
     FM310300 17007KT P6SM SCT120
     FM311800 28006KT P6SM SCT120=



000
FTUS45 KSLC 302339
TAFCDC
TAF
KCDC 302339Z 3100/3124 21015G22KT P6SM FEW080 SCT120
     FM310300 17007KT P6SM SCT200
     FM311800 22011G17KT P6SM SCT120=



000
FTUS45 KSLC 302339
TAFSLC
TAF
KSLC 302339Z 3100/0106 33009G15KT P6SM FEW080 SCT100 BKN150
     FM310400 17006KT P6SM SCT120
     FM311900 33007KT P6SM SCT120
     FM010300 15006KT P6SM SCT120=



000
FTUS45 KSLC 302339
TAFLGU
TAF
KLGU 302339Z 3100/3124 25009G15KT P6SM FEW080 BKN150
     FM310200 VRB05KT P6SM SCT200=



000
FTUS45 KSLC 302339
TAFCDC
TAF
KCDC 302339Z 3100/3124 21015G22KT P6SM FEW080 SCT120
     FM310300 17007KT P6SM SCT200
     FM311800 22011G17KT P6SM SCT120=



000
FTUS45 KSLC 302339
TAFLGU
TAF
KLGU 302339Z 3100/3124 25009G15KT P6SM FEW080 BKN150
     FM310200 VRB05KT P6SM SCT200=



000
FTUS45 KSLC 302339
TAFPVU
TAF
KPVU 302339Z 3100/3124 18008KT P6SM SCT080 BKN120
     FM310400 VRB04KT P6SM FEW120
      AMD LTD TO CLD VIS AND WIND=



000
FTUS45 KSLC 302339
TAFSGU
TAF
KSGU 302339Z 3100/3124 27016G26KT P6SM SCT120
     FM310200 27010KT P6SM SKC
     FM310400 12005KT P6SM SKC
     FM312000 25011G17KT P6SM SCT200
      AMD LTD TO CLD VIS AND WIND=



000
FTUS45 KSLC 302339
TAFSGU
TAF
KSGU 302339Z 3100/3124 27016G26KT P6SM SCT120
     FM310200 27010KT P6SM SKC
     FM310400 12005KT P6SM SKC
     FM312000 25011G17KT P6SM SCT200
      AMD LTD TO CLD VIS AND WIND=



000
FTUS45 KSLC 302339
TAFPVU
TAF
KPVU 302339Z 3100/3124 18008KT P6SM SCT080 BKN120
     FM310400 VRB04KT P6SM FEW120
      AMD LTD TO CLD VIS AND WIND=



000
FTUS45 KSLC 302339
TAFENV
TAF
KENV 302339Z 3100/3124 13008KT P6SM SCT150 BKN200
     FM310100 31010G18KT P6SM SKC
     FM311600 10007KT P6SM SKC
      AMD LTD TO CLD VIS AND WIND=



000
FTUS45 KSLC 302339
TAFENV
TAF
KENV 302339Z 3100/3124 13008KT P6SM SCT150 BKN200
     FM310100 31010G18KT P6SM SKC
     FM311600 10007KT P6SM SKC
      AMD LTD TO CLD VIS AND WIND=



000
FTUS45 KSLC 302339
TAFOGD
TAF
KOGD 302339Z 3100/3124 29010KT P6SM SCT120
     FM310300 17007KT P6SM SCT120
     FM311800 28006KT P6SM SCT120=



000
FTUS45 KSLC 302339
TAFBCE
TAF
KBCE 302339Z 3100/3124 21010KT P6SM VCSH SCT070 BKN120
     FM310200 26006KT P6SM FEW070
     FM311800 22010KT P6SM VCSH SCT070 BKN120=



000
FTUS45 KSLC 302339
TAFBCE
TAF
KBCE 302339Z 3100/3124 21010KT P6SM VCSH SCT070 BKN120
     FM310200 26006KT P6SM FEW070
     FM311800 22010KT P6SM VCSH SCT070 BKN120=



000
FTUS45 KSLC 302046 AAA
TAFSLC
TAF AMD
KSLC 302046Z 3021/3124 34010KT P6SM VCSH SCT080 BKN120
     FM310400 17006KT P6SM SCT120
     FM311900 33007KT P6SM SKC=



000
FTUS45 KSLC 302046 AAA
TAFSLC
TAF AMD
KSLC 302046Z 3021/3124 34010KT P6SM VCSH SCT080 BKN120
     FM310400 17006KT P6SM SCT120
     FM311900 33007KT P6SM SKC=



000
FTUS45 KSLC 301728
TAFCDC
TAF
KCDC 301728Z 3018/3118 21015G22KT P6SM FEW080 SCT120
     FM310300 17007KT P6SM SKC=



000
FTUS45 KSLC 301728
TAFCDC
TAF
KCDC 301728Z 3018/3118 21015G22KT P6SM FEW080 SCT120
     FM310300 17007KT P6SM SKC=



000
FTUS45 KSLC 301728
TAFSLC
TAF
KSLC 301728Z 3018/3124 33010G18KT P6SM FEW080 SCT120
     FM310400 17006KT P6SM SCT120
     FM311900 33007KT P6SM SKC=



000
FTUS45 KSLC 301728
TAFLGU
TAF
KLGU 301728Z 3018/3118 32006KT P6SM FEW080 SCT150
     FM310200 VRB05KT P6SM SKC=



000
FTUS45 KSLC 301728
TAFENV
TAF
KENV 301728Z 3018/3118 12007KT P6SM SCT150 BKN200
     FM310100 33010G18KT P6SM SKC
     FM311600 10007KT P6SM SKC
      AMD LTD TO CLD VIS AND WIND=



000
FTUS45 KSLC 301728
TAFSLC
TAF
KSLC 301728Z 3018/3124 33010G18KT P6SM FEW080 SCT120
     FM310400 17006KT P6SM SCT120
     FM311900 33007KT P6SM SKC=



000
FTUS45 KSLC 301728
TAFSLC
TAF
KSLC 301728Z 3018/3124 33010G18KT P6SM FEW080 SCT120
     FM310400 17006KT P6SM SCT120
     FM311900 33007KT P6SM SKC=



000
FTUS45 KSLC 301728
TAFOGD
TAF
KOGD 301728Z 3018/3118 28010KT P6SM SCT120
     FM310300 17007KT P6SM SCT120=



000
FTUS45 KSLC 301728
TAFPVU
TAF
KPVU 301728Z 3018/3118 23008KT P6SM SCT080 BKN120
     FM310400 VRB04KT P6SM FEW120
      AMD LTD TO CLD VIS AND WIND=



000
FTUS45 KSLC 301728
TAFBCE
TAF
KBCE 301728Z 3018/3118 21012G20KT P6SM VCSH SCT070 BKN120
     FM310300 26006KT P6SM FEW070=



000
FTUS45 KSLC 301728
TAFSGU
TAF
KSGU 301728Z 3018/3118 25007KT P6SM SCT120
     FM302100 25015G25KT P6SM SCT120
     FM310200 27010KT P6SM SKC
     FM310500 VRB04KT P6SM SKC
      AMD LTD TO CLD VIS AND WIND=



000
FTUS45 KSLC 301728
TAFPVU
TAF
KPVU 301728Z 3018/3118 23008KT P6SM SCT080 BKN120
     FM310400 VRB04KT P6SM FEW120
      AMD LTD TO CLD VIS AND WIND=



000
FTUS45 KSLC 301728
TAFPVU
TAF
KPVU 301728Z 3018/3118 23008KT P6SM SCT080 BKN120
     FM310400 VRB04KT P6SM FEW120
      AMD LTD TO CLD VIS AND WIND=



000
FTUS45 KSLC 301728
TAFOGD
TAF
KOGD 301728Z 3018/3118 28010KT P6SM SCT120
     FM310300 17007KT P6SM SCT120=



000
FTUS45 KSLC 301728
TAFCDC
TAF
KCDC 301728Z 3018/3118 21015G22KT P6SM FEW080 SCT120
     FM310300 17007KT P6SM SKC=



000
FTUS45 KSLC 301728
TAFLGU
TAF
KLGU 301728Z 3018/3118 32006KT P6SM FEW080 SCT150
     FM310200 VRB05KT P6SM SKC=



000
FTUS45 KSLC 301728
TAFSGU
TAF
KSGU 301728Z 3018/3118 25007KT P6SM SCT120
     FM302100 25015G25KT P6SM SCT120
     FM310200 27010KT P6SM SKC
     FM310500 VRB04KT P6SM SKC
      AMD LTD TO CLD VIS AND WIND=



000
FTUS45 KSLC 301728
TAFENV
TAF
KENV 301728Z 3018/3118 12007KT P6SM SCT150 BKN200
     FM310100 33010G18KT P6SM SKC
     FM311600 10007KT P6SM SKC
      AMD LTD TO CLD VIS AND WIND=



000
FTUS45 KSLC 301728
TAFENV
TAF
KENV 301728Z 3018/3118 12007KT P6SM SCT150 BKN200
     FM310100 33010G18KT P6SM SKC
     FM311600 10007KT P6SM SKC
      AMD LTD TO CLD VIS AND WIND=



000
FTUS45 KSLC 301728
TAFSGU
TAF
KSGU 301728Z 3018/3118 25007KT P6SM SCT120
     FM302100 25015G25KT P6SM SCT120
     FM310200 27010KT P6SM SKC
     FM310500 VRB04KT P6SM SKC
      AMD LTD TO CLD VIS AND WIND=



000
FTUS45 KSLC 301728
TAFBCE
TAF
KBCE 301728Z 3018/3118 21012G20KT P6SM VCSH SCT070 BKN120
     FM310300 26006KT P6SM FEW070=



000
FTUS45 KSLC 301728
TAFSLC
TAF
KSLC 301728Z 3018/3124 33010G18KT P6SM FEW080 SCT120
     FM310400 17006KT P6SM SCT120
     FM311900 33007KT P6SM SKC=



000
FTUS45 KSLC 301728
TAFENV
TAF
KENV 301728Z 3018/3118 12007KT P6SM SCT150 BKN200
     FM310100 33010G18KT P6SM SKC
     FM311600 10007KT P6SM SKC
      AMD LTD TO CLD VIS AND WIND=



000
FTUS45 KSLC 301728
TAFPVU
TAF
KPVU 301728Z 3018/3118 23008KT P6SM SCT080 BKN120
     FM310400 VRB04KT P6SM FEW120
      AMD LTD TO CLD VIS AND WIND=



000
FTUS45 KSLC 301728
TAFLGU
TAF
KLGU 301728Z 3018/3118 32006KT P6SM FEW080 SCT150
     FM310200 VRB05KT P6SM SKC=



000
FTUS45 KSLC 301728
TAFCDC
TAF
KCDC 301728Z 3018/3118 21015G22KT P6SM FEW080 SCT120
     FM310300 17007KT P6SM SKC=



000
FTUS45 KSLC 301728
TAFOGD
TAF
KOGD 301728Z 3018/3118 28010KT P6SM SCT120
     FM310300 17007KT P6SM SCT120=



000
FTUS45 KSLC 301728
TAFLGU
TAF
KLGU 301728Z 3018/3118 32006KT P6SM FEW080 SCT150
     FM310200 VRB05KT P6SM SKC=



000
FTUS45 KSLC 301728
TAFSGU
TAF
KSGU 301728Z 3018/3118 25007KT P6SM SCT120
     FM302100 25015G25KT P6SM SCT120
     FM310200 27010KT P6SM SKC
     FM310500 VRB04KT P6SM SKC
      AMD LTD TO CLD VIS AND WIND=



000
FTUS45 KSLC 301728
TAFOGD
TAF
KOGD 301728Z 3018/3118 28010KT P6SM SCT120
     FM310300 17007KT P6SM SCT120=



000
FTUS45 KSLC 301728
TAFBCE
TAF
KBCE 301728Z 3018/3118 21012G20KT P6SM VCSH SCT070 BKN120
     FM310300 26006KT P6SM FEW070=



000
FTUS45 KSLC 301728
TAFBCE
TAF
KBCE 301728Z 3018/3118 21012G20KT P6SM VCSH SCT070 BKN120
     FM310300 26006KT P6SM FEW070=



000
FTUS45 KSLC 301603 AAA
TAFCDC
TAF AMD
KCDC 301603Z 3016/3112 21015G22KT P6SM FEW080 SCT120
     FM310300 17007KT P6SM SKC=



000
FTUS45 KSLC 301603 AAC
TAFSLC
TAF AMD
KSLC 301603Z 3016/3118 30008KT P6SM SCT100 BKN150
     FM301800 33010G18KT P6SM FEW080 SCT120
     FM310400 17006KT P6SM SCT120=



000
FTUS45 KSLC 301603 AAC
TAFSLC
TAF AMD
KSLC 301603Z 3016/3118 30008KT P6SM SCT100 BKN150
     FM301800 33010G18KT P6SM FEW080 SCT120
     FM310400 17006KT P6SM SCT120=



000
FTUS45 KSLC 301603 AAC
TAFSLC
TAF AMD
KSLC 301603Z 3016/3118 30008KT P6SM SCT100 BKN150
     FM301800 33010G18KT P6SM FEW080 SCT120
     FM310400 17006KT P6SM SCT120=



000
FTUS45 KSLC 301603 AAA
TAFCDC
TAF AMD
KCDC 301603Z 3016/3112 21015G22KT P6SM FEW080 SCT120
     FM310300 17007KT P6SM SKC=



000
FTUS45 KSLC 301603 AAC
TAFSLC
TAF AMD
KSLC 301603Z 3016/3118 30008KT P6SM SCT100 BKN150
     FM301800 33010G18KT P6SM FEW080 SCT120
     FM310400 17006KT P6SM SCT120=



000
FTUS45 KSLC 301603 AAA
TAFCDC
TAF AMD
KCDC 301603Z 3016/3112 21015G22KT P6SM FEW080 SCT120
     FM310300 17007KT P6SM SKC=



000
FTUS45 KSLC 301603 AAA
TAFCDC
TAF AMD
KCDC 301603Z 3016/3112 21015G22KT P6SM FEW080 SCT120
     FM310300 17007KT P6SM SKC=



000
FTUS45 KSLC 301506 AAB
TAFSLC
TAF AMD
KSLC 301506Z 3015/3118 30008KT P6SM SCT100 BKN150
     FM301600 33010G18KT P6SM FEW080 SCT120
     FM310400 17006KT P6SM SCT120=



000
FTUS45 KSLC 301506 AAB
TAFSLC
TAF AMD
KSLC 301506Z 3015/3118 30008KT P6SM SCT100 BKN150
     FM301600 33010G18KT P6SM FEW080 SCT120
     FM310400 17006KT P6SM SCT120=



000
FTUS45 KSLC 301210 AAA
TAFSLC
TAF AMD
KSLC 301210Z 3012/3118 34008KT P6SM VCSH SCT080 BKN120
     FM301600 33010G18KT P6SM FEW080 SCT120
     FM310400 17006KT P6SM SCT120=



000
FTUS45 KSLC 301210 AAA
TAFSLC
TAF AMD
KSLC 301210Z 3012/3118 34008KT P6SM VCSH SCT080 BKN120
     FM301600 33010G18KT P6SM FEW080 SCT120
     FM310400 17006KT P6SM SCT120=



000
FTUS45 KSLC 301210 AAA
TAFSLC
TAF AMD
KSLC 301210Z 3012/3118 34008KT P6SM VCSH SCT080 BKN120
     FM301600 33010G18KT P6SM FEW080 SCT120
     FM310400 17006KT P6SM SCT120=



000
FTUS45 KSLC 301210 AAA
TAFSLC
TAF AMD
KSLC 301210Z 3012/3118 34008KT P6SM VCSH SCT080 BKN120
     FM301600 33010G18KT P6SM FEW080 SCT120
     FM310400 17006KT P6SM SCT120=



000
FTUS45 KSLC 301141
TAFOGD
TAF
KOGD 301141Z 3012/3112 27006KT P6SM VCSH SCT080 BKN120
     FM301300 28010KT P6SM SCT120
     FM310300 17007KT P6SM SCT120=



000
FTUS45 KSLC 301141
TAFENV
TAF
KENV 301141Z 3012/3112 32010KT P6SM BKN120
     FM301800 13008KT P6SM FEW100
     FM310100 33010G18KT P6SM FEW120
      AMD LTD TO CLD VIS AND WIND=



000
FTUS45 KSLC 301141
TAFBCE
TAF
KBCE 301141Z 3012/3112 24006KT P6SM FEW070
     FM301700 22012G20KT P6SM VCSH SCT070 BKN120
     FM310300 26006KT P6SM FEW070=



000
FTUS45 KSLC 301141
TAFSGU
TAF
KSGU 301141Z 3012/3112 13008KT P6SM SCT200
     FM301800 25007KT P6SM SCT120
     FM302100 25015G25KT P6SM SCT120
     FM310200 27010KT P6SM SKC
     FM310500 VRB04KT P6SM SKC
      AMD LTD TO CLD VIS AND WIND=



000
FTUS45 KSLC 301141
TAFLGU
TAF
KLGU 301141Z 3012/3112 32006KT P6SM VCSH SCT080 BKN120
     FM301900 VRB05KT P6SM SCT120=



000
FTUS45 KSLC 301141
TAFCDC
TAF
KCDC 301141Z 3012/3112 18008KT P6SM SCT120
     FM301700 21015G22KT P6SM FEW080 SCT120
     FM310300 17007KT P6SM SKC=



000
FTUS45 KSLC 301141
TAFOGD
TAF
KOGD 301141Z 3012/3112 27006KT P6SM VCSH SCT080 BKN120
     FM301300 28010KT P6SM SCT120
     FM310300 17007KT P6SM SCT120=



000
FTUS45 KSLC 301141
TAFSLC
TAF
KSLC 301141Z 3012/3118 16012G18KT P6SM VCSH SCT080 BKN120
     FM301300 28008KT P6SM SCT080 BKN120
     FM301700 33010G18KT P6SM FEW080 SCT120
     FM310400 17006KT P6SM SCT120=



000
FTUS45 KSLC 301141
TAFBCE
TAF
KBCE 301141Z 3012/3112 24006KT P6SM FEW070
     FM301700 22012G20KT P6SM VCSH SCT070 BKN120
     FM310300 26006KT P6SM FEW070=



000
FTUS45 KSLC 301141
TAFCDC
TAF
KCDC 301141Z 3012/3112 18008KT P6SM SCT120
     FM301700 21015G22KT P6SM FEW080 SCT120
     FM310300 17007KT P6SM SKC=



000
FTUS45 KSLC 301141
TAFPVU
TAF
KPVU 301141Z 3012/3112 12006KT P6SM VCSH SCT080 BKN120
     FM301600 27008KT P6SM SCT080 BKN120
     FM310400 VRB04KT P6SM FEW120
      AMD LTD TO CLD VIS AND WIND=



000
FTUS45 KSLC 301141
TAFSLC
TAF
KSLC 301141Z 3012/3118 16012G18KT P6SM VCSH SCT080 BKN120
     FM301300 28008KT P6SM SCT080 BKN120
     FM301700 33010G18KT P6SM FEW080 SCT120
     FM310400 17006KT P6SM SCT120=



000
FTUS45 KSLC 301141
TAFPVU
TAF
KPVU 301141Z 3012/3112 12006KT P6SM VCSH SCT080 BKN120
     FM301600 27008KT P6SM SCT080 BKN120
     FM310400 VRB04KT P6SM FEW120
      AMD LTD TO CLD VIS AND WIND=



000
FTUS45 KSLC 301141
TAFLGU
TAF
KLGU 301141Z 3012/3112 32006KT P6SM VCSH SCT080 BKN120
     FM301900 VRB05KT P6SM SCT120=



000
FTUS45 KSLC 301141
TAFSGU
TAF
KSGU 301141Z 3012/3112 13008KT P6SM SCT200
     FM301800 25007KT P6SM SCT120
     FM302100 25015G25KT P6SM SCT120
     FM310200 27010KT P6SM SKC
     FM310500 VRB04KT P6SM SKC
      AMD LTD TO CLD VIS AND WIND=



000
FTUS45 KSLC 300943 AAC
TAFOGD
TAF AMD
KOGD 300943Z 3010/3106 17014G21KT P6SM VCSH SCT080 BKN120
      TEMPO 3010/3011 VRB10G20KT 6SM -TSRA BKN080CB
     FM301100 27010KT P6SM FEW080 SCT120
     FM310300 17007KT P6SM SKC=



000
FTUS45 KSLC 300943 AAC
TAFOGD
TAF AMD
KOGD 300943Z 3010/3106 17014G21KT P6SM VCSH SCT080 BKN120
      TEMPO 3010/3011 VRB10G20KT 6SM -TSRA BKN080CB
     FM301100 27010KT P6SM FEW080 SCT120
     FM310300 17007KT P6SM SKC=



000
FTUS45 KSLC 300912 AAB
TAFOGD
TAF AMD
KOGD 300912Z 3009/3106 17014G21KT P6SM VCSH SCT080 BKN120
     FM301100 27010KT P6SM FEW080 SCT120
     FM310300 17007KT P6SM SKC=



000
FTUS45 KSLC 300912 AAB
TAFOGD
TAF AMD
KOGD 300912Z 3009/3106 17014G21KT P6SM VCSH SCT080 BKN120
     FM301100 27010KT P6SM FEW080 SCT120
     FM310300 17007KT P6SM SKC=



000
FTUS45 KSLC 300912 AAB
TAFOGD
TAF AMD
KOGD 300912Z 3009/3106 17014G21KT P6SM VCSH SCT080 BKN120
     FM301100 27010KT P6SM FEW080 SCT120
     FM310300 17007KT P6SM SKC=



000
FTUS45 KSLC 300912 AAB
TAFOGD
TAF AMD
KOGD 300912Z 3009/3106 17014G21KT P6SM VCSH SCT080 BKN120
     FM301100 27010KT P6SM FEW080 SCT120
     FM310300 17007KT P6SM SKC=



000
FTUS45 KSLC 300911 AAB
TAFENV
TAF AMD
KENV 300911Z 3009/3106 31013G20KT P6SM FEW100 SCT150
     FM301400 32008KT P6SM FEW100 SCT150
     FM301800 13008KT P6SM FEW100
     FM310100 33011G18KT P6SM SKC
      AMD LTD TO CLD VIS AND WIND=



000
FTUS45 KSLC 300911 AAB
TAFENV
TAF AMD
KENV 300911Z 3009/3106 31013G20KT P6SM FEW100 SCT150
     FM301400 32008KT P6SM FEW100 SCT150
     FM301800 13008KT P6SM FEW100
     FM310100 33011G18KT P6SM SKC
      AMD LTD TO CLD VIS AND WIND=



000
FTUS45 KSLC 300911 AAB
TAFENV
TAF AMD
KENV 300911Z 3009/3106 31013G20KT P6SM FEW100 SCT150
     FM301400 32008KT P6SM FEW100 SCT150
     FM301800 13008KT P6SM FEW100
     FM310100 33011G18KT P6SM SKC
      AMD LTD TO CLD VIS AND WIND=



000
FTUS45 KSLC 300911 AAB
TAFENV
TAF AMD
KENV 300911Z 3009/3106 31013G20KT P6SM FEW100 SCT150
     FM301400 32008KT P6SM FEW100 SCT150
     FM301800 13008KT P6SM FEW100
     FM310100 33011G18KT P6SM SKC
      AMD LTD TO CLD VIS AND WIND=



000
FTUS45 KSLC 300902 AAB
TAFSLC
TAF AMD
KSLC 300902Z 3009/3112 16012G17KT P6SM VCSH SCT090 BKN120
     FM301100 28007KT P6SM FEW090 BKN120
     FM301700 33011G18KT P6SM FEW080 SCT120
     FM310000 35008KT P6SM FEW080 SCT120
     FM310400 17006KT P6SM FEW120=



000
FTUS45 KSLC 300902 AAB
TAFSLC
TAF AMD
KSLC 300902Z 3009/3112 16012G17KT P6SM VCSH SCT090 BKN120
     FM301100 28007KT P6SM FEW090 BKN120
     FM301700 33011G18KT P6SM FEW080 SCT120
     FM310000 35008KT P6SM FEW080 SCT120
     FM310400 17006KT P6SM FEW120=



    US Dept of Commerce
    National Oceanic and Atmospheric Administration
    National Weather Service
    1325 East West Highway
    Silver Spring, MD 20910
    Page Author: NWS Internet Services Team
Disclaimer
Information Quality
Credits
Glossary
Privacy Policy
Freedom of Information Act (FOIA)
About Us
Career Opportunities